<?xml version="1.0" encoding="UTF-8" standalone="no" ?>
<gpx xmlns="http://www.topografix.com/GPX/1/1" xmlns:xsi="http://www.w3.org/2001/XMLSchema-instance" xsi:schemaLocation="http://www.topografix.com/GPX/1/1 http://www.topografix.com/GPX/1/1/gpx.xsd" version="1.1" creator="VisuGPX - https://www.visugpx.com">
  <metadata>
    <name>Le bassin minier Camplong-Graissessac en rive gauche</name>
  </metadata>
  <wpt lat="43.67841" lon="3.11502">
    <ele>319</ele>
    <name><![CDATA[Parking de la résidence Puits Durand ]]></name>
  </wpt>
  <wpt lat="43.67998" lon="3.11224">
    <ele>338</ele>
    <name><![CDATA[Puits Durand ]]></name>
  </wpt>
  <wpt lat="43.67606" lon="3.10819">
    <ele>463</ele>
    <name><![CDATA[Abandon piste, chemin à droite]]></name>
  </wpt>
  <wpt lat="43.68296" lon="3.10431">
    <ele>524</ele>
    <name><![CDATA[Falaise de la Découverte]]></name>
  </wpt>
  <wpt lat="43.68297" lon="3.09861">
    <ele>522</ele>
    <name><![CDATA[Intersection]]></name>
  </wpt>
  <wpt lat="43.69325" lon="3.0837">
    <ele>680</ele>
    <name><![CDATA[Jonction sentier-piste carrossable]]></name>
  </wpt>
  <wpt lat="43.69324" lon="3.07775">
    <ele>621</ele>
    <name><![CDATA[Départ sentier balisé]]></name>
  </wpt>
  <wpt lat="43.68146" lon="3.09117">
    <ele>330</ele>
    <name><![CDATA[Graissessac, Ruisseau de Riols]]></name>
  </wpt>
  <wpt lat="43.67896" lon="3.09637">
    <ele>351</ele>
    <name><![CDATA[Escaliers]]></name>
  </wpt>
  <wpt lat="43.67618" lon="3.10077">
    <ele>355</ele>
    <name><![CDATA[RD23]]></name>
  </wpt>
  <wpt lat="43.67451" lon="3.1028">
    <ele>356</ele>
    <name><![CDATA[Fourche]]></name>
  </wpt>
  <wpt lat="43.67015" lon="3.10934">
    <ele>402</ele>
    <name><![CDATA[Panneau Saint-Sauveur à gauche ]]></name>
  </wpt>
  <wpt lat="43.66989" lon="3.1125">
    <ele>441</ele>
    <name><![CDATA[Croisement Chapelle Saint-Sauveur]]></name>
  </wpt>
  <wpt lat="43.66901" lon="3.11383">
    <ele>467</ele>
    <name><![CDATA[Chapelle Saint-Sauveur]]></name>
  </wpt>
  <wpt lat="43.67124" lon="3.11629">
    <ele>370</ele>
    <name><![CDATA[Piste descendante Camplong]]></name>
  </wpt>
  <wpt lat="43.6724" lon="3.11847">
    <ele>327</ele>
    <name><![CDATA[Camplong, Place Antonin Durand]]></name>
  </wpt>
  <wpt lat="43.6784" lon="3.11501">
    <ele>319</ele>
    <name><![CDATA[Parking puits Durand]]></name>
  </wpt>
  <trk>
    <name><![CDATA[Le bassin minier Camplong-Graissessac en rive gauche]]></name>
    <trkseg>
      <trkpt lat="43.67841" lon="3.11502">
        <ele>319</ele>
        <time>2023-11-17T10:14:42+01:00</time>
      </trkpt>
      <trkpt lat="43.6785" lon="3.11478">
        <ele>318</ele>
        <time>2023-11-17T10:15:15+01:00</time>
      </trkpt>
      <trkpt lat="43.6786" lon="3.11456">
        <ele>317</ele>
        <time>2023-11-17T10:16:08+01:00</time>
      </trkpt>
      <trkpt lat="43.67853" lon="3.11431">
        <ele>314</ele>
        <time>2023-11-17T10:16:26+01:00</time>
      </trkpt>
      <trkpt lat="43.67846" lon="3.11407">
        <ele>312</ele>
        <time>2023-11-17T10:16:41+01:00</time>
      </trkpt>
      <trkpt lat="43.6784" lon="3.11382">
        <ele>311</ele>
        <time>2023-11-17T10:17:05+01:00</time>
      </trkpt>
      <trkpt lat="43.67844" lon="3.1136">
        <ele>314</ele>
        <time>2023-11-17T10:17:23+01:00</time>
      </trkpt>
      <trkpt lat="43.67857" lon="3.11342">
        <ele>317</ele>
        <time>2023-11-17T10:17:39+01:00</time>
      </trkpt>
      <trkpt lat="43.67874" lon="3.11331">
        <ele>319</ele>
        <time>2023-11-17T10:17:56+01:00</time>
      </trkpt>
      <trkpt lat="43.67892" lon="3.11316">
        <ele>319</ele>
        <time>2023-11-17T10:18:15+01:00</time>
      </trkpt>
      <trkpt lat="43.67907" lon="3.11301">
        <ele>321</ele>
        <time>2023-11-17T10:18:33+01:00</time>
      </trkpt>
      <trkpt lat="43.67924" lon="3.11288">
        <ele>323</ele>
        <time>2023-11-17T10:18:53+01:00</time>
      </trkpt>
      <trkpt lat="43.67941" lon="3.11274">
        <ele>324</ele>
        <time>2023-11-17T10:19:12+01:00</time>
      </trkpt>
      <trkpt lat="43.67958" lon="3.11264">
        <ele>326</ele>
        <time>2023-11-17T10:19:30+01:00</time>
      </trkpt>
      <trkpt lat="43.67977" lon="3.11257">
        <ele>327</ele>
        <time>2023-11-17T10:19:49+01:00</time>
      </trkpt>
      <trkpt lat="43.67996" lon="3.11249">
        <ele>329</ele>
        <time>2023-11-17T10:20:10+01:00</time>
      </trkpt>
      <trkpt lat="43.68015" lon="3.11247">
        <ele>329</ele>
        <time>2023-11-17T10:20:30+01:00</time>
      </trkpt>
      <trkpt lat="43.68035" lon="3.11245">
        <ele>329</ele>
        <time>2023-11-17T10:20:46+01:00</time>
      </trkpt>
      <trkpt lat="43.68053" lon="3.11243">
        <ele>330</ele>
        <time>2023-11-17T10:21:06+01:00</time>
      </trkpt>
      <trkpt lat="43.68036" lon="3.11225">
        <ele>333</ele>
        <time>2023-11-17T10:21:42+01:00</time>
      </trkpt>
      <trkpt lat="43.68017" lon="3.11223">
        <ele>335</ele>
        <time>2023-11-17T10:22:01+01:00</time>
      </trkpt>
      <trkpt lat="43.67998" lon="3.11224">
        <ele>338</ele>
        <time>2023-11-17T10:22:38+01:00</time>
      </trkpt>
      <trkpt lat="43.67978" lon="3.11214">
        <ele>342</ele>
        <time>2023-11-17T10:27:15+01:00</time>
      </trkpt>
      <trkpt lat="43.67962" lon="3.11227">
        <ele>341</ele>
        <time>2023-11-17T10:27:33+01:00</time>
      </trkpt>
      <trkpt lat="43.67944" lon="3.11231">
        <ele>342</ele>
        <time>2023-11-17T10:27:49+01:00</time>
      </trkpt>
      <trkpt lat="43.67927" lon="3.11242">
        <ele>341</ele>
        <time>2023-11-17T10:28:04+01:00</time>
      </trkpt>
      <trkpt lat="43.6791" lon="3.11255">
        <ele>339</ele>
        <time>2023-11-17T10:28:21+01:00</time>
      </trkpt>
      <trkpt lat="43.67891" lon="3.11263">
        <ele>340</ele>
        <time>2023-11-17T10:28:41+01:00</time>
      </trkpt>
      <trkpt lat="43.67872" lon="3.11262">
        <ele>346</ele>
        <time>2023-11-17T10:29:02+01:00</time>
      </trkpt>
      <trkpt lat="43.67854" lon="3.11267">
        <ele>348</ele>
        <time>2023-11-17T10:29:19+01:00</time>
      </trkpt>
      <trkpt lat="43.67835" lon="3.11271">
        <ele>351</ele>
        <time>2023-11-17T10:29:38+01:00</time>
      </trkpt>
      <trkpt lat="43.67819" lon="3.11284">
        <ele>351</ele>
        <time>2023-11-17T10:30:07+01:00</time>
      </trkpt>
      <trkpt lat="43.67804" lon="3.11299">
        <ele>351</ele>
        <time>2023-11-17T10:30:25+01:00</time>
      </trkpt>
      <trkpt lat="43.67788" lon="3.11315">
        <ele>349</ele>
        <time>2023-11-17T10:30:44+01:00</time>
      </trkpt>
      <trkpt lat="43.67771" lon="3.11325">
        <ele>351</ele>
        <time>2023-11-17T10:31:01+01:00</time>
      </trkpt>
      <trkpt lat="43.67754" lon="3.11336">
        <ele>354</ele>
        <time>2023-11-17T10:31:19+01:00</time>
      </trkpt>
      <trkpt lat="43.67738" lon="3.1135">
        <ele>354</ele>
        <time>2023-11-17T10:31:36+01:00</time>
      </trkpt>
      <trkpt lat="43.67721" lon="3.11361">
        <ele>356</ele>
        <time>2023-11-17T10:31:52+01:00</time>
      </trkpt>
      <trkpt lat="43.67704" lon="3.11372">
        <ele>357</ele>
        <time>2023-11-17T10:32:10+01:00</time>
      </trkpt>
      <trkpt lat="43.67687" lon="3.11384">
        <ele>358</ele>
        <time>2023-11-17T10:32:27+01:00</time>
      </trkpt>
      <trkpt lat="43.67668" lon="3.11395">
        <ele>360</ele>
        <time>2023-11-17T10:32:46+01:00</time>
      </trkpt>
      <trkpt lat="43.6765" lon="3.11404">
        <ele>362</ele>
        <time>2023-11-17T10:33:04+01:00</time>
      </trkpt>
      <trkpt lat="43.67634" lon="3.11417">
        <ele>363</ele>
        <time>2023-11-17T10:33:22+01:00</time>
      </trkpt>
      <trkpt lat="43.67617" lon="3.11426">
        <ele>365</ele>
        <time>2023-11-17T10:33:39+01:00</time>
      </trkpt>
      <trkpt lat="43.67614" lon="3.11397">
        <ele>371</ele>
        <time>2023-11-17T10:34:06+01:00</time>
      </trkpt>
      <trkpt lat="43.6763" lon="3.11384">
        <ele>370</ele>
        <time>2023-11-17T10:34:24+01:00</time>
      </trkpt>
      <trkpt lat="43.67646" lon="3.11371">
        <ele>370</ele>
        <time>2023-11-17T10:35:18+01:00</time>
      </trkpt>
      <trkpt lat="43.6766" lon="3.11354">
        <ele>370</ele>
        <time>2023-11-17T10:35:37+01:00</time>
      </trkpt>
      <trkpt lat="43.67676" lon="3.11338">
        <ele>370</ele>
        <time>2023-11-17T10:35:55+01:00</time>
      </trkpt>
      <trkpt lat="43.67691" lon="3.11321">
        <ele>371</ele>
        <time>2023-11-17T10:36:14+01:00</time>
      </trkpt>
      <trkpt lat="43.67707" lon="3.11305">
        <ele>372</ele>
        <time>2023-11-17T10:36:33+01:00</time>
      </trkpt>
      <trkpt lat="43.67723" lon="3.11291">
        <ele>374</ele>
        <time>2023-11-17T10:36:52+01:00</time>
      </trkpt>
      <trkpt lat="43.67738" lon="3.11275">
        <ele>375</ele>
        <time>2023-11-17T10:37:12+01:00</time>
      </trkpt>
      <trkpt lat="43.67753" lon="3.11258">
        <ele>377</ele>
        <time>2023-11-17T10:37:32+01:00</time>
      </trkpt>
      <trkpt lat="43.67766" lon="3.11239">
        <ele>380</ele>
        <time>2023-11-17T10:37:50+01:00</time>
      </trkpt>
      <trkpt lat="43.67781" lon="3.11223">
        <ele>381</ele>
        <time>2023-11-17T10:38:09+01:00</time>
      </trkpt>
      <trkpt lat="43.67795" lon="3.11206">
        <ele>384</ele>
        <time>2023-11-17T10:38:26+01:00</time>
      </trkpt>
      <trkpt lat="43.67811" lon="3.11191">
        <ele>386</ele>
        <time>2023-11-17T10:38:44+01:00</time>
      </trkpt>
      <trkpt lat="43.67828" lon="3.11176">
        <ele>387</ele>
        <time>2023-11-17T10:39:04+01:00</time>
      </trkpt>
      <trkpt lat="43.67844" lon="3.11163">
        <ele>389</ele>
        <time>2023-11-17T10:39:26+01:00</time>
      </trkpt>
      <trkpt lat="43.67861" lon="3.11153">
        <ele>389</ele>
        <time>2023-11-17T10:39:44+01:00</time>
      </trkpt>
      <trkpt lat="43.67878" lon="3.11143">
        <ele>390</ele>
        <time>2023-11-17T10:40:17+01:00</time>
      </trkpt>
      <trkpt lat="43.6789" lon="3.11126">
        <ele>395</ele>
        <time>2023-11-17T10:42:14+01:00</time>
      </trkpt>
      <trkpt lat="43.67905" lon="3.11109">
        <ele>398</ele>
        <time>2023-11-17T10:42:40+01:00</time>
      </trkpt>
      <trkpt lat="43.67917" lon="3.11089">
        <ele>401</ele>
        <time>2023-11-17T10:42:59+01:00</time>
      </trkpt>
      <trkpt lat="43.67926" lon="3.11066">
        <ele>401</ele>
        <time>2023-11-17T10:43:18+01:00</time>
      </trkpt>
      <trkpt lat="43.67936" lon="3.11043">
        <ele>401</ele>
        <time>2023-11-17T10:43:36+01:00</time>
      </trkpt>
      <trkpt lat="43.67947" lon="3.11024">
        <ele>399</ele>
        <time>2023-11-17T10:43:54+01:00</time>
      </trkpt>
      <trkpt lat="43.6796" lon="3.11005">
        <ele>396</ele>
        <time>2023-11-17T10:44:16+01:00</time>
      </trkpt>
      <trkpt lat="43.67976" lon="3.10993">
        <ele>395</ele>
        <time>2023-11-17T10:44:36+01:00</time>
      </trkpt>
      <trkpt lat="43.67995" lon="3.10986">
        <ele>399</ele>
        <time>2023-11-17T10:44:57+01:00</time>
      </trkpt>
      <trkpt lat="43.68014" lon="3.10989">
        <ele>401</ele>
        <time>2023-11-17T10:45:17+01:00</time>
      </trkpt>
      <trkpt lat="43.68034" lon="3.10989">
        <ele>405</ele>
        <time>2023-11-17T10:45:36+01:00</time>
      </trkpt>
      <trkpt lat="43.68054" lon="3.10986">
        <ele>408</ele>
        <time>2023-11-17T10:45:56+01:00</time>
      </trkpt>
      <trkpt lat="43.68069" lon="3.10972">
        <ele>412</ele>
        <time>2023-11-17T10:46:13+01:00</time>
      </trkpt>
      <trkpt lat="43.68061" lon="3.10954">
        <ele>419</ele>
        <time>2023-11-17T10:46:59+01:00</time>
      </trkpt>
      <trkpt lat="43.68043" lon="3.10947">
        <ele>420</ele>
        <time>2023-11-17T10:47:16+01:00</time>
      </trkpt>
      <trkpt lat="43.68024" lon="3.1094">
        <ele>420</ele>
        <time>2023-11-17T10:47:34+01:00</time>
      </trkpt>
      <trkpt lat="43.68007" lon="3.1093">
        <ele>419</ele>
        <time>2023-11-17T10:47:51+01:00</time>
      </trkpt>
      <trkpt lat="43.6799" lon="3.10919">
        <ele>421</ele>
        <time>2023-11-17T10:48:09+01:00</time>
      </trkpt>
      <trkpt lat="43.67974" lon="3.10904">
        <ele>423</ele>
        <time>2023-11-17T10:48:28+01:00</time>
      </trkpt>
      <trkpt lat="43.67956" lon="3.10895">
        <ele>426</ele>
        <time>2023-11-17T10:48:47+01:00</time>
      </trkpt>
      <trkpt lat="43.67942" lon="3.10877">
        <ele>429</ele>
        <time>2023-11-17T10:49:06+01:00</time>
      </trkpt>
      <trkpt lat="43.67926" lon="3.10864">
        <ele>431</ele>
        <time>2023-11-17T10:49:26+01:00</time>
      </trkpt>
      <trkpt lat="43.67907" lon="3.10864">
        <ele>433</ele>
        <time>2023-11-17T10:49:42+01:00</time>
      </trkpt>
      <trkpt lat="43.67892" lon="3.10877">
        <ele>435</ele>
        <time>2023-11-17T10:49:58+01:00</time>
      </trkpt>
      <trkpt lat="43.6788" lon="3.10896">
        <ele>436</ele>
        <time>2023-11-17T10:50:16+01:00</time>
      </trkpt>
      <trkpt lat="43.67866" lon="3.10916">
        <ele>438</ele>
        <time>2023-11-17T10:50:35+01:00</time>
      </trkpt>
      <trkpt lat="43.67851" lon="3.10929">
        <ele>438</ele>
        <time>2023-11-17T10:50:51+01:00</time>
      </trkpt>
      <trkpt lat="43.67831" lon="3.10934">
        <ele>438</ele>
        <time>2023-11-17T10:51:09+01:00</time>
      </trkpt>
      <trkpt lat="43.67812" lon="3.10927">
        <ele>439</ele>
        <time>2023-11-17T10:51:29+01:00</time>
      </trkpt>
      <trkpt lat="43.67796" lon="3.10914">
        <ele>441</ele>
        <time>2023-11-17T10:51:46+01:00</time>
      </trkpt>
      <trkpt lat="43.67778" lon="3.10906">
        <ele>442</ele>
        <time>2023-11-17T10:52:03+01:00</time>
      </trkpt>
      <trkpt lat="43.67759" lon="3.10902">
        <ele>444</ele>
        <time>2023-11-17T10:52:20+01:00</time>
      </trkpt>
      <trkpt lat="43.6774" lon="3.10902">
        <ele>446</ele>
        <time>2023-11-17T10:52:35+01:00</time>
      </trkpt>
      <trkpt lat="43.67722" lon="3.10905">
        <ele>447</ele>
        <time>2023-11-17T10:52:56+01:00</time>
      </trkpt>
      <trkpt lat="43.67703" lon="3.10913">
        <ele>449</ele>
        <time>2023-11-17T10:53:28+01:00</time>
      </trkpt>
      <trkpt lat="43.67684" lon="3.10916">
        <ele>451</ele>
        <time>2023-11-17T10:53:46+01:00</time>
      </trkpt>
      <trkpt lat="43.67666" lon="3.10921">
        <ele>452</ele>
        <time>2023-11-17T10:54:03+01:00</time>
      </trkpt>
      <trkpt lat="43.67649" lon="3.10919">
        <ele>453</ele>
        <time>2023-11-17T10:55:49+01:00</time>
      </trkpt>
      <trkpt lat="43.67631" lon="3.10911">
        <ele>453</ele>
        <time>2023-11-17T10:56:10+01:00</time>
      </trkpt>
      <trkpt lat="43.67616" lon="3.10894">
        <ele>453</ele>
        <time>2023-11-17T10:56:31+01:00</time>
      </trkpt>
      <trkpt lat="43.67599" lon="3.10879">
        <ele>453</ele>
        <time>2023-11-17T10:56:51+01:00</time>
      </trkpt>
      <trkpt lat="43.67582" lon="3.10865">
        <ele>454</ele>
        <time>2023-11-17T10:57:09+01:00</time>
      </trkpt>
      <trkpt lat="43.67565" lon="3.10852">
        <ele>456</ele>
        <time>2023-11-17T10:57:29+01:00</time>
      </trkpt>
      <trkpt lat="43.67547" lon="3.10842">
        <ele>457</ele>
        <time>2023-11-17T10:57:46+01:00</time>
      </trkpt>
      <trkpt lat="43.6753" lon="3.10832">
        <ele>459</ele>
        <time>2023-11-17T10:58:04+01:00</time>
      </trkpt>
      <trkpt lat="43.67549" lon="3.10823">
        <ele>461</ele>
        <time>2023-11-17T10:58:49+01:00</time>
      </trkpt>
      <trkpt lat="43.67568" lon="3.10829">
        <ele>461</ele>
        <time>2023-11-17T10:59:07+01:00</time>
      </trkpt>
      <trkpt lat="43.67588" lon="3.10826">
        <ele>462</ele>
        <time>2023-11-17T10:59:25+01:00</time>
      </trkpt>
      <trkpt lat="43.67606" lon="3.10819">
        <ele>463</ele>
        <time>2023-11-17T10:59:43+01:00</time>
      </trkpt>
      <trkpt lat="43.67623" lon="3.10817">
        <ele>465</ele>
        <time>2023-11-17T11:00:02+01:00</time>
      </trkpt>
      <trkpt lat="43.67642" lon="3.10813">
        <ele>468</ele>
        <time>2023-11-17T11:00:19+01:00</time>
      </trkpt>
      <trkpt lat="43.6766" lon="3.10802">
        <ele>471</ele>
        <time>2023-11-17T11:00:37+01:00</time>
      </trkpt>
      <trkpt lat="43.67677" lon="3.10794">
        <ele>474</ele>
        <time>2023-11-17T11:00:54+01:00</time>
      </trkpt>
      <trkpt lat="43.67695" lon="3.10785">
        <ele>475</ele>
        <time>2023-11-17T11:01:12+01:00</time>
      </trkpt>
      <trkpt lat="43.67712" lon="3.10771">
        <ele>474</ele>
        <time>2023-11-17T11:01:31+01:00</time>
      </trkpt>
      <trkpt lat="43.67729" lon="3.1076">
        <ele>473</ele>
        <time>2023-11-17T11:01:51+01:00</time>
      </trkpt>
      <trkpt lat="43.67748" lon="3.10759">
        <ele>470</ele>
        <time>2023-11-17T11:02:48+01:00</time>
      </trkpt>
      <trkpt lat="43.67767" lon="3.10754">
        <ele>467</ele>
        <time>2023-11-17T11:03:42+01:00</time>
      </trkpt>
      <trkpt lat="43.67783" lon="3.1074">
        <ele>467</ele>
        <time>2023-11-17T11:05:31+01:00</time>
      </trkpt>
      <trkpt lat="43.67799" lon="3.10729">
        <ele>467</ele>
        <time>2023-11-17T11:05:49+01:00</time>
      </trkpt>
      <trkpt lat="43.67814" lon="3.10714">
        <ele>468</ele>
        <time>2023-11-17T11:06:06+01:00</time>
      </trkpt>
      <trkpt lat="43.67831" lon="3.10702">
        <ele>469</ele>
        <time>2023-11-17T11:06:23+01:00</time>
      </trkpt>
      <trkpt lat="43.67847" lon="3.10689">
        <ele>470</ele>
        <time>2023-11-17T11:06:39+01:00</time>
      </trkpt>
      <trkpt lat="43.67858" lon="3.10669">
        <ele>474</ele>
        <time>2023-11-17T11:06:55+01:00</time>
      </trkpt>
      <trkpt lat="43.67877" lon="3.10658">
        <ele>477</ele>
        <time>2023-11-17T11:07:13+01:00</time>
      </trkpt>
      <trkpt lat="43.67896" lon="3.10656">
        <ele>480</ele>
        <time>2023-11-17T11:07:31+01:00</time>
      </trkpt>
      <trkpt lat="43.67914" lon="3.10656">
        <ele>483</ele>
        <time>2023-11-17T11:07:48+01:00</time>
      </trkpt>
      <trkpt lat="43.67933" lon="3.10658">
        <ele>485</ele>
        <time>2023-11-17T11:08:30+01:00</time>
      </trkpt>
      <trkpt lat="43.67945" lon="3.10677">
        <ele>482</ele>
        <time>2023-11-17T11:08:46+01:00</time>
      </trkpt>
      <trkpt lat="43.67957" lon="3.10697">
        <ele>480</ele>
        <time>2023-11-17T11:09:00+01:00</time>
      </trkpt>
      <trkpt lat="43.67971" lon="3.10714">
        <ele>478</ele>
        <time>2023-11-17T11:09:16+01:00</time>
      </trkpt>
      <trkpt lat="43.67986" lon="3.1073">
        <ele>476</ele>
        <time>2023-11-17T11:09:32+01:00</time>
      </trkpt>
      <trkpt lat="43.68001" lon="3.10746">
        <ele>475</ele>
        <time>2023-11-17T11:09:49+01:00</time>
      </trkpt>
      <trkpt lat="43.68018" lon="3.10758">
        <ele>475</ele>
        <time>2023-11-17T11:10:05+01:00</time>
      </trkpt>
      <trkpt lat="43.68036" lon="3.1077">
        <ele>476</ele>
        <time>2023-11-17T11:10:23+01:00</time>
      </trkpt>
      <trkpt lat="43.68053" lon="3.10775">
        <ele>479</ele>
        <time>2023-11-17T11:10:46+01:00</time>
      </trkpt>
      <trkpt lat="43.68072" lon="3.10775">
        <ele>480</ele>
        <time>2023-11-17T11:11:03+01:00</time>
      </trkpt>
      <trkpt lat="43.6809" lon="3.10768">
        <ele>483</ele>
        <time>2023-11-17T11:11:20+01:00</time>
      </trkpt>
      <trkpt lat="43.68107" lon="3.1076">
        <ele>486</ele>
        <time>2023-11-17T11:11:47+01:00</time>
      </trkpt>
      <trkpt lat="43.68123" lon="3.10748">
        <ele>490</ele>
        <time>2023-11-17T11:12:02+01:00</time>
      </trkpt>
      <trkpt lat="43.68141" lon="3.10739">
        <ele>492</ele>
        <time>2023-11-17T11:12:18+01:00</time>
      </trkpt>
      <trkpt lat="43.68157" lon="3.10723">
        <ele>494</ele>
        <time>2023-11-17T11:13:34+01:00</time>
      </trkpt>
      <trkpt lat="43.6817" lon="3.10702">
        <ele>497</ele>
        <time>2023-11-17T11:13:49+01:00</time>
      </trkpt>
      <trkpt lat="43.68183" lon="3.10684">
        <ele>499</ele>
        <time>2023-11-17T11:14:07+01:00</time>
      </trkpt>
      <trkpt lat="43.68199" lon="3.10667">
        <ele>499</ele>
        <time>2023-11-17T11:14:23+01:00</time>
      </trkpt>
      <trkpt lat="43.68207" lon="3.10644">
        <ele>504</ele>
        <time>2023-11-17T11:14:41+01:00</time>
      </trkpt>
      <trkpt lat="43.68222" lon="3.10628">
        <ele>505</ele>
        <time>2023-11-17T11:14:59+01:00</time>
      </trkpt>
      <trkpt lat="43.68236" lon="3.1061">
        <ele>508</ele>
        <time>2023-11-17T11:15:19+01:00</time>
      </trkpt>
      <trkpt lat="43.6825" lon="3.10592">
        <ele>511</ele>
        <time>2023-11-17T11:15:39+01:00</time>
      </trkpt>
      <trkpt lat="43.68262" lon="3.10573">
        <ele>513</ele>
        <time>2023-11-17T11:16:00+01:00</time>
      </trkpt>
      <trkpt lat="43.6827" lon="3.1055">
        <ele>516</ele>
        <time>2023-11-17T11:16:22+01:00</time>
      </trkpt>
      <trkpt lat="43.68275" lon="3.10525">
        <ele>521</ele>
        <time>2023-11-17T11:16:45+01:00</time>
      </trkpt>
      <trkpt lat="43.68276" lon="3.10499">
        <ele>522</ele>
        <time>2023-11-17T11:17:10+01:00</time>
      </trkpt>
      <trkpt lat="43.68281" lon="3.10476">
        <ele>523</ele>
        <time>2023-11-17T11:17:44+01:00</time>
      </trkpt>
      <trkpt lat="43.68286" lon="3.10451">
        <ele>525</ele>
        <time>2023-11-17T11:18:06+01:00</time>
      </trkpt>
      <trkpt lat="43.68296" lon="3.10431">
        <ele>524</ele>
        <time>2023-11-17T11:18:30+01:00</time>
      </trkpt>
      <trkpt lat="43.68307" lon="3.10409">
        <ele>523</ele>
        <time>2023-11-17T11:19:09+01:00</time>
      </trkpt>
      <trkpt lat="43.68314" lon="3.10386">
        <ele>524</ele>
        <time>2023-11-17T11:19:46+01:00</time>
      </trkpt>
      <trkpt lat="43.68324" lon="3.10365">
        <ele>525</ele>
        <time>2023-11-17T11:20:01+01:00</time>
      </trkpt>
      <trkpt lat="43.68329" lon="3.1034">
        <ele>526</ele>
        <time>2023-11-17T11:20:20+01:00</time>
      </trkpt>
      <trkpt lat="43.68335" lon="3.10318">
        <ele>529</ele>
        <time>2023-11-17T11:21:05+01:00</time>
      </trkpt>
      <trkpt lat="43.68331" lon="3.10291">
        <ele>529</ele>
        <time>2023-11-17T11:21:23+01:00</time>
      </trkpt>
      <trkpt lat="43.68329" lon="3.10264">
        <ele>527</ele>
        <time>2023-11-17T11:21:41+01:00</time>
      </trkpt>
      <trkpt lat="43.68329" lon="3.10239">
        <ele>525</ele>
        <time>2023-11-17T11:22:04+01:00</time>
      </trkpt>
      <trkpt lat="43.68327" lon="3.10214">
        <ele>521</ele>
        <time>2023-11-17T11:22:22+01:00</time>
      </trkpt>
      <trkpt lat="43.68324" lon="3.10189">
        <ele>519</ele>
        <time>2023-11-17T11:22:41+01:00</time>
      </trkpt>
      <trkpt lat="43.68323" lon="3.1016">
        <ele>518</ele>
        <time>2023-11-17T11:23:15+01:00</time>
      </trkpt>
      <trkpt lat="43.68321" lon="3.10134">
        <ele>517</ele>
        <time>2023-11-17T11:23:32+01:00</time>
      </trkpt>
      <trkpt lat="43.68316" lon="3.10108">
        <ele>514</ele>
        <time>2023-11-17T11:23:49+01:00</time>
      </trkpt>
      <trkpt lat="43.68312" lon="3.10084">
        <ele>514</ele>
        <time>2023-11-17T11:24:06+01:00</time>
      </trkpt>
      <trkpt lat="43.68307" lon="3.10057">
        <ele>513</ele>
        <time>2023-11-17T11:24:25+01:00</time>
      </trkpt>
      <trkpt lat="43.68302" lon="3.10033">
        <ele>513</ele>
        <time>2023-11-17T11:25:22+01:00</time>
      </trkpt>
      <trkpt lat="43.68296" lon="3.10008">
        <ele>513</ele>
        <time>2023-11-17T11:25:44+01:00</time>
      </trkpt>
      <trkpt lat="43.68291" lon="3.09983">
        <ele>514</ele>
        <time>2023-11-17T11:26:01+01:00</time>
      </trkpt>
      <trkpt lat="43.68286" lon="3.09959">
        <ele>515</ele>
        <time>2023-11-17T11:26:17+01:00</time>
      </trkpt>
      <trkpt lat="43.68277" lon="3.09935">
        <ele>516</ele>
        <time>2023-11-17T11:26:35+01:00</time>
      </trkpt>
      <trkpt lat="43.68266" lon="3.09912">
        <ele>516</ele>
        <time>2023-11-17T11:26:53+01:00</time>
      </trkpt>
      <trkpt lat="43.68263" lon="3.09887">
        <ele>515</ele>
        <time>2023-11-17T11:27:13+01:00</time>
      </trkpt>
      <trkpt lat="43.68273" lon="3.09866">
        <ele>517</ele>
        <time>2023-11-17T11:27:32+01:00</time>
      </trkpt>
      <trkpt lat="43.68289" lon="3.09854">
        <ele>520</ele>
        <time>2023-11-17T11:27:52+01:00</time>
      </trkpt>
      <trkpt lat="43.68297" lon="3.09861">
        <ele>522</ele>
        <time>2023-11-17T11:29:39+01:00</time>
      </trkpt>
      <trkpt lat="43.68311" lon="3.09838">
        <ele>525</ele>
        <time>2023-11-17T11:30:13+01:00</time>
      </trkpt>
      <trkpt lat="43.68314" lon="3.09812">
        <ele>523</ele>
        <time>2023-11-17T11:30:34+01:00</time>
      </trkpt>
      <trkpt lat="43.68321" lon="3.0979">
        <ele>523</ele>
        <time>2023-11-17T11:32:13+01:00</time>
      </trkpt>
      <trkpt lat="43.6833" lon="3.09768">
        <ele>522</ele>
        <time>2023-11-17T11:32:33+01:00</time>
      </trkpt>
      <trkpt lat="43.68343" lon="3.09748">
        <ele>525</ele>
        <time>2023-11-17T11:32:52+01:00</time>
      </trkpt>
      <trkpt lat="43.68359" lon="3.09735">
        <ele>532</ele>
        <time>2023-11-17T11:33:12+01:00</time>
      </trkpt>
      <trkpt lat="43.68378" lon="3.09734">
        <ele>535</ele>
        <time>2023-11-17T11:33:30+01:00</time>
      </trkpt>
      <trkpt lat="43.68397" lon="3.09738">
        <ele>538</ele>
        <time>2023-11-17T11:33:48+01:00</time>
      </trkpt>
      <trkpt lat="43.68414" lon="3.09748">
        <ele>541</ele>
        <time>2023-11-17T11:36:19+01:00</time>
      </trkpt>
      <trkpt lat="43.68432" lon="3.09753">
        <ele>543</ele>
        <time>2023-11-17T11:37:55+01:00</time>
      </trkpt>
      <trkpt lat="43.68451" lon="3.09758">
        <ele>544</ele>
        <time>2023-11-17T11:38:13+01:00</time>
      </trkpt>
      <trkpt lat="43.68468" lon="3.09768">
        <ele>547</ele>
        <time>2023-11-17T11:38:51+01:00</time>
      </trkpt>
      <trkpt lat="43.68487" lon="3.09775">
        <ele>548</ele>
        <time>2023-11-17T11:39:15+01:00</time>
      </trkpt>
      <trkpt lat="43.68468" lon="3.09791">
        <ele>554</ele>
        <time>2023-11-17T11:40:15+01:00</time>
      </trkpt>
      <trkpt lat="43.68448" lon="3.09789">
        <ele>554</ele>
        <time>2023-11-17T11:40:35+01:00</time>
      </trkpt>
      <trkpt lat="43.6843" lon="3.0979">
        <ele>555</ele>
        <time>2023-11-17T11:40:55+01:00</time>
      </trkpt>
      <trkpt lat="43.68412" lon="3.098">
        <ele>557</ele>
        <time>2023-11-17T11:41:13+01:00</time>
      </trkpt>
      <trkpt lat="43.68421" lon="3.09821">
        <ele>561</ele>
        <time>2023-11-17T11:41:45+01:00</time>
      </trkpt>
      <trkpt lat="43.68439" lon="3.09829">
        <ele>562</ele>
        <time>2023-11-17T11:42:05+01:00</time>
      </trkpt>
      <trkpt lat="43.68453" lon="3.09839">
        <ele>562</ele>
        <time>2023-11-17T11:43:20+01:00</time>
      </trkpt>
      <trkpt lat="43.68466" lon="3.09856">
        <ele>564</ele>
        <time>2023-11-17T11:43:40+01:00</time>
      </trkpt>
      <trkpt lat="43.68452" lon="3.09873">
        <ele>566</ele>
        <time>2023-11-17T11:44:23+01:00</time>
      </trkpt>
      <trkpt lat="43.68433" lon="3.09871">
        <ele>566</ele>
        <time>2023-11-17T11:44:40+01:00</time>
      </trkpt>
      <trkpt lat="43.68433" lon="3.09899">
        <ele>571</ele>
        <time>2023-11-17T11:45:18+01:00</time>
      </trkpt>
      <trkpt lat="43.68451" lon="3.09908">
        <ele>572</ele>
        <time>2023-11-17T11:45:38+01:00</time>
      </trkpt>
      <trkpt lat="43.68468" lon="3.09922">
        <ele>572</ele>
        <time>2023-11-17T11:45:58+01:00</time>
      </trkpt>
      <trkpt lat="43.68486" lon="3.09935">
        <ele>575</ele>
        <time>2023-11-17T11:46:17+01:00</time>
      </trkpt>
      <trkpt lat="43.68502" lon="3.0995">
        <ele>578</ele>
        <time>2023-11-17T11:46:35+01:00</time>
      </trkpt>
      <trkpt lat="43.6852" lon="3.09958">
        <ele>579</ele>
        <time>2023-11-17T11:47:06+01:00</time>
      </trkpt>
      <trkpt lat="43.68537" lon="3.0997">
        <ele>583</ele>
        <time>2023-11-17T11:47:24+01:00</time>
      </trkpt>
      <trkpt lat="43.68555" lon="3.09979">
        <ele>586</ele>
        <time>2023-11-17T11:47:40+01:00</time>
      </trkpt>
      <trkpt lat="43.68575" lon="3.0998">
        <ele>585</ele>
        <time>2023-11-17T11:48:01+01:00</time>
      </trkpt>
      <trkpt lat="43.68593" lon="3.0998">
        <ele>584</ele>
        <time>2023-11-17T11:48:18+01:00</time>
      </trkpt>
      <trkpt lat="43.68613" lon="3.09972">
        <ele>580</ele>
        <time>2023-11-17T11:51:03+01:00</time>
      </trkpt>
      <trkpt lat="43.68623" lon="3.09995">
        <ele>588</ele>
        <time>2023-11-17T11:51:21+01:00</time>
      </trkpt>
      <trkpt lat="43.68639" lon="3.10006">
        <ele>590</ele>
        <time>2023-11-17T11:51:37+01:00</time>
      </trkpt>
      <trkpt lat="43.68658" lon="3.1001">
        <ele>591</ele>
        <time>2023-11-17T11:52:00+01:00</time>
      </trkpt>
      <trkpt lat="43.68676" lon="3.10017">
        <ele>595</ele>
        <time>2023-11-17T11:52:18+01:00</time>
      </trkpt>
      <trkpt lat="43.68696" lon="3.10016">
        <ele>597</ele>
        <time>2023-11-17T11:52:47+01:00</time>
      </trkpt>
      <trkpt lat="43.68713" lon="3.10008">
        <ele>597</ele>
        <time>2023-11-17T11:53:05+01:00</time>
      </trkpt>
      <trkpt lat="43.68729" lon="3.09995">
        <ele>597</ele>
        <time>2023-11-17T11:53:24+01:00</time>
      </trkpt>
      <trkpt lat="43.68747" lon="3.09986">
        <ele>599</ele>
        <time>2023-11-17T11:53:41+01:00</time>
      </trkpt>
      <trkpt lat="43.68766" lon="3.09984">
        <ele>600</ele>
        <time>2023-11-17T11:53:59+01:00</time>
      </trkpt>
      <trkpt lat="43.68785" lon="3.09984">
        <ele>601</ele>
        <time>2023-11-17T11:54:17+01:00</time>
      </trkpt>
      <trkpt lat="43.68801" lon="3.09998">
        <ele>606</ele>
        <time>2023-11-17T11:54:37+01:00</time>
      </trkpt>
      <trkpt lat="43.68817" lon="3.10012">
        <ele>610</ele>
        <time>2023-11-17T11:54:59+01:00</time>
      </trkpt>
      <trkpt lat="43.68831" lon="3.10031">
        <ele>611</ele>
        <time>2023-11-17T11:55:35+01:00</time>
      </trkpt>
      <trkpt lat="43.68839" lon="3.10039">
        <ele>611</ele>
        <time>2023-11-17T11:56:16+01:00</time>
      </trkpt>
      <trkpt lat="43.68847" lon="3.1002">
        <ele>613</ele>
        <time>2023-11-17T11:58:27+01:00</time>
      </trkpt>
      <trkpt lat="43.68855" lon="3.09998">
        <ele>615</ele>
        <time>2023-11-17T11:58:48+01:00</time>
      </trkpt>
      <trkpt lat="43.68857" lon="3.09972">
        <ele>613</ele>
        <time>2023-11-17T11:59:06+01:00</time>
      </trkpt>
      <trkpt lat="43.68861" lon="3.09945">
        <ele>613</ele>
        <time>2023-11-17T11:59:23+01:00</time>
      </trkpt>
      <trkpt lat="43.68864" lon="3.09918">
        <ele>612</ele>
        <time>2023-11-17T11:59:42+01:00</time>
      </trkpt>
      <trkpt lat="43.68868" lon="3.09905">
        <ele>613</ele>
        <time>2023-11-17T11:59:51+01:00</time>
      </trkpt>
      <trkpt lat="43.68877" lon="3.09883">
        <ele>616</ele>
        <time>2023-11-17T12:00:07+01:00</time>
      </trkpt>
      <trkpt lat="43.68887" lon="3.0986">
        <ele>617</ele>
        <time>2023-11-17T12:00:25+01:00</time>
      </trkpt>
      <trkpt lat="43.68894" lon="3.09837">
        <ele>616</ele>
        <time>2023-11-17T12:00:41+01:00</time>
      </trkpt>
      <trkpt lat="43.68902" lon="3.09813">
        <ele>615</ele>
        <time>2023-11-17T12:01:18+01:00</time>
      </trkpt>
      <trkpt lat="43.68906" lon="3.098">
        <ele>615</ele>
        <time>2023-11-17T12:01:30+01:00</time>
      </trkpt>
      <trkpt lat="43.6891" lon="3.09772">
        <ele>613</ele>
        <time>2023-11-17T12:01:58+01:00</time>
      </trkpt>
      <trkpt lat="43.6891" lon="3.09747">
        <ele>611</ele>
        <time>2023-11-17T12:02:19+01:00</time>
      </trkpt>
      <trkpt lat="43.68921" lon="3.09725">
        <ele>617</ele>
        <time>2023-11-17T12:03:30+01:00</time>
      </trkpt>
      <trkpt lat="43.68931" lon="3.09704">
        <ele>619</ele>
        <time>2023-11-17T12:03:54+01:00</time>
      </trkpt>
      <trkpt lat="43.68937" lon="3.09678">
        <ele>619</ele>
        <time>2023-11-17T12:04:14+01:00</time>
      </trkpt>
      <trkpt lat="43.68937" lon="3.09652">
        <ele>615</ele>
        <time>2023-11-17T12:04:38+01:00</time>
      </trkpt>
      <trkpt lat="43.68941" lon="3.09627">
        <ele>614</ele>
        <time>2023-11-17T12:05:02+01:00</time>
      </trkpt>
      <trkpt lat="43.68946" lon="3.09605">
        <ele>614</ele>
        <time>2023-11-17T12:05:20+01:00</time>
      </trkpt>
      <trkpt lat="43.68954" lon="3.0958">
        <ele>613</ele>
        <time>2023-11-17T12:05:38+01:00</time>
      </trkpt>
      <trkpt lat="43.6897" lon="3.09568">
        <ele>616</ele>
        <time>2023-11-17T12:06:02+01:00</time>
      </trkpt>
      <trkpt lat="43.68987" lon="3.09558">
        <ele>618</ele>
        <time>2023-11-17T12:06:25+01:00</time>
      </trkpt>
      <trkpt lat="43.69006" lon="3.09551">
        <ele>621</ele>
        <time>2023-11-17T12:06:45+01:00</time>
      </trkpt>
      <trkpt lat="43.69024" lon="3.09545">
        <ele>624</ele>
        <time>2023-11-17T12:07:02+01:00</time>
      </trkpt>
      <trkpt lat="43.69041" lon="3.09538">
        <ele>626</ele>
        <time>2023-11-17T12:07:49+01:00</time>
      </trkpt>
      <trkpt lat="43.69058" lon="3.09527">
        <ele>624</ele>
        <time>2023-11-17T12:08:10+01:00</time>
      </trkpt>
      <trkpt lat="43.69074" lon="3.09513">
        <ele>624</ele>
        <time>2023-11-17T12:08:30+01:00</time>
      </trkpt>
      <trkpt lat="43.6909" lon="3.09501">
        <ele>626</ele>
        <time>2023-11-17T12:08:49+01:00</time>
      </trkpt>
      <trkpt lat="43.69102" lon="3.09481">
        <ele>625</ele>
        <time>2023-11-17T12:09:11+01:00</time>
      </trkpt>
      <trkpt lat="43.69117" lon="3.09463">
        <ele>627</ele>
        <time>2023-11-17T12:09:35+01:00</time>
      </trkpt>
      <trkpt lat="43.69131" lon="3.09447">
        <ele>628</ele>
        <time>2023-11-17T12:10:13+01:00</time>
      </trkpt>
      <trkpt lat="43.69143" lon="3.09425">
        <ele>627</ele>
        <time>2023-11-17T12:11:24+01:00</time>
      </trkpt>
      <trkpt lat="43.69153" lon="3.09403">
        <ele>629</ele>
        <time>2023-11-17T12:12:10+01:00</time>
      </trkpt>
      <trkpt lat="43.69163" lon="3.0938">
        <ele>630</ele>
        <time>2023-11-17T12:12:29+01:00</time>
      </trkpt>
      <trkpt lat="43.69172" lon="3.09357">
        <ele>630</ele>
        <time>2023-11-17T12:12:48+01:00</time>
      </trkpt>
      <trkpt lat="43.69183" lon="3.09334">
        <ele>628</ele>
        <time>2023-11-17T12:13:10+01:00</time>
      </trkpt>
      <trkpt lat="43.69196" lon="3.09315">
        <ele>629</ele>
        <time>2023-11-17T12:13:33+01:00</time>
      </trkpt>
      <trkpt lat="43.6921" lon="3.09299">
        <ele>630</ele>
        <time>2023-11-17T12:13:55+01:00</time>
      </trkpt>
      <trkpt lat="43.69229" lon="3.0929">
        <ele>633</ele>
        <time>2023-11-17T12:14:16+01:00</time>
      </trkpt>
      <trkpt lat="43.69247" lon="3.09286">
        <ele>636</ele>
        <time>2023-11-17T12:14:41+01:00</time>
      </trkpt>
      <trkpt lat="43.69267" lon="3.09283">
        <ele>638</ele>
        <time>2023-11-17T12:15:07+01:00</time>
      </trkpt>
      <trkpt lat="43.69285" lon="3.09277">
        <ele>637</ele>
        <time>2023-11-17T12:15:25+01:00</time>
      </trkpt>
      <trkpt lat="43.69304" lon="3.09277">
        <ele>639</ele>
        <time>2023-11-17T12:15:46+01:00</time>
      </trkpt>
      <trkpt lat="43.69322" lon="3.09277">
        <ele>643</ele>
        <time>2023-11-17T12:16:06+01:00</time>
      </trkpt>
      <trkpt lat="43.69339" lon="3.09269">
        <ele>644</ele>
        <time>2023-11-17T12:16:31+01:00</time>
      </trkpt>
      <trkpt lat="43.69355" lon="3.09255">
        <ele>643</ele>
        <time>2023-11-17T12:16:52+01:00</time>
      </trkpt>
      <trkpt lat="43.69372" lon="3.09244">
        <ele>643</ele>
        <time>2023-11-17T12:17:11+01:00</time>
      </trkpt>
      <trkpt lat="43.6939" lon="3.09237">
        <ele>646</ele>
        <time>2023-11-17T12:17:30+01:00</time>
      </trkpt>
      <trkpt lat="43.69406" lon="3.09224">
        <ele>646</ele>
        <time>2023-11-17T12:17:49+01:00</time>
      </trkpt>
      <trkpt lat="43.69419" lon="3.09207">
        <ele>643</ele>
        <time>2023-11-17T12:18:08+01:00</time>
      </trkpt>
      <trkpt lat="43.69427" lon="3.09178">
        <ele>641</ele>
        <time>2023-11-17T12:19:07+01:00</time>
      </trkpt>
      <trkpt lat="43.69437" lon="3.09156">
        <ele>645</ele>
        <time>2023-11-17T12:19:53+01:00</time>
      </trkpt>
      <trkpt lat="43.69444" lon="3.09131">
        <ele>645</ele>
        <time>2023-11-17T12:20:10+01:00</time>
      </trkpt>
      <trkpt lat="43.69449" lon="3.09105">
        <ele>647</ele>
        <time>2023-11-17T12:20:28+01:00</time>
      </trkpt>
      <trkpt lat="43.69443" lon="3.09081">
        <ele>643</ele>
        <time>2023-11-17T12:20:49+01:00</time>
      </trkpt>
      <trkpt lat="43.69447" lon="3.09056">
        <ele>645</ele>
        <time>2023-11-17T12:21:07+01:00</time>
      </trkpt>
      <trkpt lat="43.69456" lon="3.09032">
        <ele>648</ele>
        <time>2023-11-17T12:21:29+01:00</time>
      </trkpt>
      <trkpt lat="43.69464" lon="3.09009">
        <ele>649</ele>
        <time>2023-11-17T12:21:47+01:00</time>
      </trkpt>
      <trkpt lat="43.69473" lon="3.08986">
        <ele>650</ele>
        <time>2023-11-17T12:22:07+01:00</time>
      </trkpt>
      <trkpt lat="43.69482" lon="3.08962">
        <ele>652</ele>
        <time>2023-11-17T12:22:29+01:00</time>
      </trkpt>
      <trkpt lat="43.69488" lon="3.08934">
        <ele>651</ele>
        <time>2023-11-17T12:22:48+01:00</time>
      </trkpt>
      <trkpt lat="43.69499" lon="3.08914">
        <ele>654</ele>
        <time>2023-11-17T12:23:03+01:00</time>
      </trkpt>
      <trkpt lat="43.69511" lon="3.08894">
        <ele>656</ele>
        <time>2023-11-17T12:23:21+01:00</time>
      </trkpt>
      <trkpt lat="43.69519" lon="3.0887">
        <ele>654</ele>
        <time>2023-11-17T12:23:40+01:00</time>
      </trkpt>
      <trkpt lat="43.69535" lon="3.08861">
        <ele>659</ele>
        <time>2023-11-17T12:24:20+01:00</time>
      </trkpt>
      <trkpt lat="43.69543" lon="3.08838">
        <ele>657</ele>
        <time>2023-11-17T12:24:47+01:00</time>
      </trkpt>
      <trkpt lat="43.69558" lon="3.08823">
        <ele>661</ele>
        <time>2023-11-17T12:25:05+01:00</time>
      </trkpt>
      <trkpt lat="43.69572" lon="3.08807">
        <ele>660</ele>
        <time>2023-11-17T12:25:24+01:00</time>
      </trkpt>
      <trkpt lat="43.69587" lon="3.08792">
        <ele>661</ele>
        <time>2023-11-17T12:25:41+01:00</time>
      </trkpt>
      <trkpt lat="43.69604" lon="3.08777">
        <ele>662</ele>
        <time>2023-11-17T12:26:00+01:00</time>
      </trkpt>
      <trkpt lat="43.69617" lon="3.08758">
        <ele>661</ele>
        <time>2023-11-17T12:26:17+01:00</time>
      </trkpt>
      <trkpt lat="43.69631" lon="3.08741">
        <ele>663</ele>
        <time>2023-11-17T12:26:41+01:00</time>
      </trkpt>
      <trkpt lat="43.69634" lon="3.08729">
        <ele>661</ele>
        <time>2023-11-17T12:27:00+01:00</time>
      </trkpt>
      <trkpt lat="43.69644" lon="3.08707">
        <ele>662</ele>
        <time>2023-11-17T12:27:28+01:00</time>
      </trkpt>
      <trkpt lat="43.69653" lon="3.08683">
        <ele>662</ele>
        <time>2023-11-17T12:27:50+01:00</time>
      </trkpt>
      <trkpt lat="43.69661" lon="3.0866">
        <ele>661</ele>
        <time>2023-11-17T12:28:11+01:00</time>
      </trkpt>
      <trkpt lat="43.69669" lon="3.08636">
        <ele>662</ele>
        <time>2023-11-17T12:28:29+01:00</time>
      </trkpt>
      <trkpt lat="43.69674" lon="3.08611">
        <ele>661</ele>
        <time>2023-11-17T12:28:55+01:00</time>
      </trkpt>
      <trkpt lat="43.69681" lon="3.08587">
        <ele>662</ele>
        <time>2023-11-17T12:29:20+01:00</time>
      </trkpt>
      <trkpt lat="43.6969" lon="3.08564">
        <ele>665</ele>
        <time>2023-11-17T12:29:44+01:00</time>
      </trkpt>
      <trkpt lat="43.69694" lon="3.08541">
        <ele>664</ele>
        <time>2023-11-17T12:30:06+01:00</time>
      </trkpt>
      <trkpt lat="43.697" lon="3.08517">
        <ele>665</ele>
        <time>2023-11-17T12:30:26+01:00</time>
      </trkpt>
      <trkpt lat="43.69709" lon="3.08495">
        <ele>669</ele>
        <time>2023-11-17T12:30:52+01:00</time>
      </trkpt>
      <trkpt lat="43.69715" lon="3.0847">
        <ele>669</ele>
        <time>2023-11-17T12:31:15+01:00</time>
      </trkpt>
      <trkpt lat="43.69723" lon="3.08446">
        <ele>668</ele>
        <time>2023-11-17T12:31:32+01:00</time>
      </trkpt>
      <trkpt lat="43.69734" lon="3.08423">
        <ele>672</ele>
        <time>2023-11-17T12:31:53+01:00</time>
      </trkpt>
      <trkpt lat="43.69728" lon="3.08398">
        <ele>669</ele>
        <time>2023-11-17T12:32:18+01:00</time>
      </trkpt>
      <trkpt lat="43.69723" lon="3.08373">
        <ele>667</ele>
        <time>2023-11-17T12:32:42+01:00</time>
      </trkpt>
      <trkpt lat="43.69726" lon="3.08349">
        <ele>670</ele>
        <time>2023-11-17T12:33:00+01:00</time>
      </trkpt>
      <trkpt lat="43.69715" lon="3.08328">
        <ele>664</ele>
        <time>2023-11-17T12:33:24+01:00</time>
      </trkpt>
      <trkpt lat="43.69718" lon="3.08303">
        <ele>669</ele>
        <time>2023-11-17T12:33:41+01:00</time>
      </trkpt>
      <trkpt lat="43.69716" lon="3.08282">
        <ele>671</ele>
        <time>2023-11-17T12:34:11+01:00</time>
      </trkpt>
      <trkpt lat="43.69696" lon="3.08273">
        <ele>668</ele>
        <time>2023-11-17T12:34:54+01:00</time>
      </trkpt>
      <trkpt lat="43.69678" lon="3.08278">
        <ele>669</ele>
        <time>2023-11-17T12:35:10+01:00</time>
      </trkpt>
      <trkpt lat="43.6966" lon="3.08287">
        <ele>670</ele>
        <time>2023-11-17T12:35:40+01:00</time>
      </trkpt>
      <trkpt lat="43.69645" lon="3.083">
        <ele>670</ele>
        <time>2023-11-17T12:36:02+01:00</time>
      </trkpt>
      <trkpt lat="43.69627" lon="3.08307">
        <ele>673</ele>
        <time>2023-11-17T12:36:16+01:00</time>
      </trkpt>
      <trkpt lat="43.69608" lon="3.0831">
        <ele>679</ele>
        <time>2023-11-17T12:36:39+01:00</time>
      </trkpt>
      <trkpt lat="43.69589" lon="3.08314">
        <ele>684</ele>
        <time>2023-11-17T12:37:00+01:00</time>
      </trkpt>
      <trkpt lat="43.69571" lon="3.0832">
        <ele>685</ele>
        <time>2023-11-17T12:37:22+01:00</time>
      </trkpt>
      <trkpt lat="43.69552" lon="3.08326">
        <ele>686</ele>
        <time>2023-11-17T12:37:39+01:00</time>
      </trkpt>
      <trkpt lat="43.69534" lon="3.08333">
        <ele>684</ele>
        <time>2023-11-17T12:38:01+01:00</time>
      </trkpt>
      <trkpt lat="43.69516" lon="3.08342">
        <ele>683</ele>
        <time>2023-11-17T12:38:22+01:00</time>
      </trkpt>
      <trkpt lat="43.69498" lon="3.08352">
        <ele>683</ele>
        <time>2023-11-17T12:38:45+01:00</time>
      </trkpt>
      <trkpt lat="43.6948" lon="3.08354">
        <ele>684</ele>
        <time>2023-11-17T12:39:06+01:00</time>
      </trkpt>
      <trkpt lat="43.69461" lon="3.0836">
        <ele>683</ele>
        <time>2023-11-17T12:39:28+01:00</time>
      </trkpt>
      <trkpt lat="43.69443" lon="3.08358">
        <ele>683</ele>
        <time>2023-11-17T12:39:48+01:00</time>
      </trkpt>
      <trkpt lat="43.69426" lon="3.08355">
        <ele>684</ele>
        <time>2023-11-17T12:40:07+01:00</time>
      </trkpt>
      <trkpt lat="43.69406" lon="3.08359">
        <ele>683</ele>
        <time>2023-11-17T12:40:25+01:00</time>
      </trkpt>
      <trkpt lat="43.69387" lon="3.08361">
        <ele>683</ele>
        <time>2023-11-17T12:40:46+01:00</time>
      </trkpt>
      <trkpt lat="43.69369" lon="3.08365">
        <ele>682</ele>
        <time>2023-11-17T12:41:02+01:00</time>
      </trkpt>
      <trkpt lat="43.6935" lon="3.0837">
        <ele>681</ele>
        <time>2023-11-17T12:41:19+01:00</time>
      </trkpt>
      <trkpt lat="43.69332" lon="3.08376">
        <ele>680</ele>
        <time>2023-11-17T12:41:36+01:00</time>
      </trkpt>
      <trkpt lat="43.69325" lon="3.0837">
        <ele>680</ele>
        <time>2023-11-17T12:42:12+01:00</time>
      </trkpt>
      <trkpt lat="43.69306" lon="3.08372">
        <ele>678</ele>
        <time>2023-11-17T12:42:29+01:00</time>
      </trkpt>
      <trkpt lat="43.69301" lon="3.08351">
        <ele>677</ele>
        <time>2023-11-17T13:05:41+01:00</time>
      </trkpt>
      <trkpt lat="43.69306" lon="3.08327">
        <ele>676</ele>
        <time>2023-11-17T13:05:57+01:00</time>
      </trkpt>
      <trkpt lat="43.69317" lon="3.08306">
        <ele>677</ele>
        <time>2023-11-17T13:06:36+01:00</time>
      </trkpt>
      <trkpt lat="43.69323" lon="3.08281">
        <ele>674</ele>
        <time>2023-11-17T13:06:54+01:00</time>
      </trkpt>
      <trkpt lat="43.69336" lon="3.08259">
        <ele>675</ele>
        <time>2023-11-17T13:07:12+01:00</time>
      </trkpt>
      <trkpt lat="43.69344" lon="3.08235">
        <ele>675</ele>
        <time>2023-11-17T13:07:30+01:00</time>
      </trkpt>
      <trkpt lat="43.69353" lon="3.0821">
        <ele>674</ele>
        <time>2023-11-17T13:07:46+01:00</time>
      </trkpt>
      <trkpt lat="43.69358" lon="3.08186">
        <ele>672</ele>
        <time>2023-11-17T13:08:01+01:00</time>
      </trkpt>
      <trkpt lat="43.69367" lon="3.08164">
        <ele>672</ele>
        <time>2023-11-17T13:08:19+01:00</time>
      </trkpt>
      <trkpt lat="43.69376" lon="3.08141">
        <ele>671</ele>
        <time>2023-11-17T13:08:33+01:00</time>
      </trkpt>
      <trkpt lat="43.69386" lon="3.0812">
        <ele>671</ele>
        <time>2023-11-17T13:08:49+01:00</time>
      </trkpt>
      <trkpt lat="43.69394" lon="3.08096">
        <ele>671</ele>
        <time>2023-11-17T13:09:06+01:00</time>
      </trkpt>
      <trkpt lat="43.69395" lon="3.08071">
        <ele>667</ele>
        <time>2023-11-17T13:09:22+01:00</time>
      </trkpt>
      <trkpt lat="43.69397" lon="3.08043">
        <ele>665</ele>
        <time>2023-11-17T13:09:39+01:00</time>
      </trkpt>
      <trkpt lat="43.69402" lon="3.08017">
        <ele>665</ele>
        <time>2023-11-17T13:09:57+01:00</time>
      </trkpt>
      <trkpt lat="43.69403" lon="3.0799">
        <ele>661</ele>
        <time>2023-11-17T13:10:14+01:00</time>
      </trkpt>
      <trkpt lat="43.69405" lon="3.07963">
        <ele>661</ele>
        <time>2023-11-17T13:10:33+01:00</time>
      </trkpt>
      <trkpt lat="43.69399" lon="3.07937">
        <ele>660</ele>
        <time>2023-11-17T13:10:51+01:00</time>
      </trkpt>
      <trkpt lat="43.69395" lon="3.07911">
        <ele>660</ele>
        <time>2023-11-17T13:11:09+01:00</time>
      </trkpt>
      <trkpt lat="43.69392" lon="3.07886">
        <ele>659</ele>
        <time>2023-11-17T13:11:26+01:00</time>
      </trkpt>
      <trkpt lat="43.69389" lon="3.0786">
        <ele>655</ele>
        <time>2023-11-17T13:11:44+01:00</time>
      </trkpt>
      <trkpt lat="43.69391" lon="3.07834">
        <ele>653</ele>
        <time>2023-11-17T13:12:04+01:00</time>
      </trkpt>
      <trkpt lat="43.69373" lon="3.07816">
        <ele>644</ele>
        <time>2023-11-17T13:12:47+01:00</time>
      </trkpt>
      <trkpt lat="43.69357" lon="3.07828">
        <ele>642</ele>
        <time>2023-11-17T13:13:06+01:00</time>
      </trkpt>
      <trkpt lat="43.6934" lon="3.07819">
        <ele>635</ele>
        <time>2023-11-17T13:13:35+01:00</time>
      </trkpt>
      <trkpt lat="43.69322" lon="3.07819">
        <ele>630</ele>
        <time>2023-11-17T13:14:05+01:00</time>
      </trkpt>
      <trkpt lat="43.69316" lon="3.07799">
        <ele>625</ele>
        <time>2023-11-17T13:14:32+01:00</time>
      </trkpt>
      <trkpt lat="43.69324" lon="3.07775">
        <ele>621</ele>
        <time>2023-11-17T13:15:04+01:00</time>
      </trkpt>
      <trkpt lat="43.69306" lon="3.07782">
        <ele>618</ele>
        <time>2023-11-17T13:16:20+01:00</time>
      </trkpt>
      <trkpt lat="43.69289" lon="3.07797">
        <ele>619</ele>
        <time>2023-11-17T13:16:39+01:00</time>
      </trkpt>
      <trkpt lat="43.6927" lon="3.07803">
        <ele>617</ele>
        <time>2023-11-17T13:16:51+01:00</time>
      </trkpt>
      <trkpt lat="43.69256" lon="3.07819">
        <ele>615</ele>
        <time>2023-11-17T13:17:10+01:00</time>
      </trkpt>
      <trkpt lat="43.6926" lon="3.07848">
        <ele>613</ele>
        <time>2023-11-17T13:18:08+01:00</time>
      </trkpt>
      <trkpt lat="43.6927" lon="3.07869">
        <ele>610</ele>
        <time>2023-11-17T13:18:23+01:00</time>
      </trkpt>
      <trkpt lat="43.69279" lon="3.07893">
        <ele>607</ele>
        <time>2023-11-17T13:18:43+01:00</time>
      </trkpt>
      <trkpt lat="43.69287" lon="3.07917">
        <ele>605</ele>
        <time>2023-11-17T13:18:57+01:00</time>
      </trkpt>
      <trkpt lat="43.69293" lon="3.07943">
        <ele>603</ele>
        <time>2023-11-17T13:19:15+01:00</time>
      </trkpt>
      <trkpt lat="43.69298" lon="3.07967">
        <ele>604</ele>
        <time>2023-11-17T13:19:27+01:00</time>
      </trkpt>
      <trkpt lat="43.69295" lon="3.07993">
        <ele>603</ele>
        <time>2023-11-17T13:19:48+01:00</time>
      </trkpt>
      <trkpt lat="43.69286" lon="3.08015">
        <ele>602</ele>
        <time>2023-11-17T13:20:03+01:00</time>
      </trkpt>
      <trkpt lat="43.69272" lon="3.08033">
        <ele>600</ele>
        <time>2023-11-17T13:20:19+01:00</time>
      </trkpt>
      <trkpt lat="43.69259" lon="3.08052">
        <ele>600</ele>
        <time>2023-11-17T13:20:39+01:00</time>
      </trkpt>
      <trkpt lat="43.69244" lon="3.08061">
        <ele>596</ele>
        <time>2023-11-17T13:21:19+01:00</time>
      </trkpt>
      <trkpt lat="43.69231" lon="3.08078">
        <ele>593</ele>
        <time>2023-11-17T13:21:39+01:00</time>
      </trkpt>
      <trkpt lat="43.69219" lon="3.08097">
        <ele>591</ele>
        <time>2023-11-17T13:22:02+01:00</time>
      </trkpt>
      <trkpt lat="43.6921" lon="3.08104">
        <ele>588</ele>
        <time>2023-11-17T13:22:11+01:00</time>
      </trkpt>
      <trkpt lat="43.69196" lon="3.0812">
        <ele>585</ele>
      </trkpt>
      <trkpt lat="43.69175" lon="3.08138">
        <ele>578</ele>
      </trkpt>
      <trkpt lat="43.69158" lon="3.08154">
        <ele>574</ele>
      </trkpt>
      <trkpt lat="43.69134" lon="3.08162">
        <ele>564</ele>
      </trkpt>
      <trkpt lat="43.69108" lon="3.08179">
        <ele>552</ele>
      </trkpt>
      <trkpt lat="43.69087" lon="3.08196">
        <ele>547</ele>
      </trkpt>
      <trkpt lat="43.69071" lon="3.0822">
        <ele>546</ele>
      </trkpt>
      <trkpt lat="43.69056" lon="3.08244">
        <ele>545</ele>
      </trkpt>
      <trkpt lat="43.69043" lon="3.08265">
        <ele>543</ele>
      </trkpt>
      <trkpt lat="43.69023" lon="3.08279">
        <ele>537</ele>
      </trkpt>
      <trkpt lat="43.69" lon="3.08297">
        <ele>532</ele>
      </trkpt>
      <trkpt lat="43.68973" lon="3.08319">
        <ele>528</ele>
      </trkpt>
      <trkpt lat="43.68943" lon="3.08328">
        <ele>522</ele>
      </trkpt>
      <trkpt lat="43.68924" lon="3.08348">
        <ele>521</ele>
      </trkpt>
      <trkpt lat="43.68902" lon="3.08359">
        <ele>515</ele>
      </trkpt>
      <trkpt lat="43.68886" lon="3.08376">
        <ele>514</ele>
      </trkpt>
      <trkpt lat="43.68871" lon="3.08389">
        <ele>513</ele>
      </trkpt>
      <trkpt lat="43.68851" lon="3.08408">
        <ele>511</ele>
      </trkpt>
      <trkpt lat="43.68828" lon="3.08423">
        <ele>506</ele>
      </trkpt>
      <trkpt lat="43.68804" lon="3.08439">
        <ele>499</ele>
      </trkpt>
      <trkpt lat="43.68786" lon="3.08456">
        <ele>497</ele>
      </trkpt>
      <trkpt lat="43.68762" lon="3.08469">
        <ele>493</ele>
      </trkpt>
      <trkpt lat="43.6874" lon="3.0848">
        <ele>487</ele>
      </trkpt>
      <trkpt lat="43.68721" lon="3.08481">
        <ele>480</ele>
      </trkpt>
      <trkpt lat="43.68705" lon="3.08486">
        <ele>475</ele>
      </trkpt>
      <trkpt lat="43.68707" lon="3.08517">
        <ele>484</ele>
      </trkpt>
      <trkpt lat="43.68681" lon="3.08511">
        <ele>474</ele>
      </trkpt>
      <trkpt lat="43.68644" lon="3.08525">
        <ele>468</ele>
      </trkpt>
      <trkpt lat="43.6862" lon="3.08542">
        <ele>466</ele>
      </trkpt>
      <trkpt lat="43.68591" lon="3.08537">
        <ele>457</ele>
      </trkpt>
      <trkpt lat="43.68564" lon="3.08554">
        <ele>454</ele>
      </trkpt>
      <trkpt lat="43.68544" lon="3.08564">
        <ele>449</ele>
      </trkpt>
      <trkpt lat="43.68523" lon="3.08577">
        <ele>442</ele>
      </trkpt>
      <trkpt lat="43.68509" lon="3.08603">
        <ele>439</ele>
      </trkpt>
      <trkpt lat="43.68492" lon="3.08624">
        <ele>432</ele>
      </trkpt>
      <trkpt lat="43.68482" lon="3.0866">
        <ele>427</ele>
      </trkpt>
      <trkpt lat="43.68474" lon="3.08679">
        <ele>424</ele>
      </trkpt>
      <trkpt lat="43.68466" lon="3.08704">
        <ele>422</ele>
      </trkpt>
      <trkpt lat="43.68447" lon="3.08723">
        <ele>416</ele>
        <time>2023-11-17T13:22:19+01:00</time>
      </trkpt>
      <trkpt lat="43.68429" lon="3.08747">
        <ele>412</ele>
      </trkpt>
      <trkpt lat="43.68413" lon="3.08764">
        <ele>408</ele>
      </trkpt>
      <trkpt lat="43.68391" lon="3.08795">
        <ele>403</ele>
      </trkpt>
      <trkpt lat="43.68383" lon="3.08815">
        <ele>403</ele>
        <time>2023-11-17T13:42:07+01:00</time>
      </trkpt>
      <trkpt lat="43.68363" lon="3.08848">
        <ele>400</ele>
        <time>2023-11-17T13:43:18+01:00</time>
      </trkpt>
      <trkpt lat="43.68353" lon="3.08869">
        <ele>398</ele>
        <time>2023-11-17T13:43:51+01:00</time>
      </trkpt>
      <trkpt lat="43.68337" lon="3.08882">
        <ele>393</ele>
        <time>2023-11-17T13:44:10+01:00</time>
      </trkpt>
      <trkpt lat="43.68321" lon="3.08896">
        <ele>388</ele>
        <time>2023-11-17T13:44:30+01:00</time>
      </trkpt>
      <trkpt lat="43.68306" lon="3.08912">
        <ele>384</ele>
        <time>2023-11-17T13:44:46+01:00</time>
      </trkpt>
      <trkpt lat="43.68292" lon="3.0893">
        <ele>380</ele>
        <time>2023-11-17T13:45:06+01:00</time>
      </trkpt>
      <trkpt lat="43.6828" lon="3.08949">
        <ele>378</ele>
        <time>2023-11-17T13:45:24+01:00</time>
      </trkpt>
      <trkpt lat="43.68268" lon="3.08969">
        <ele>373</ele>
        <time>2023-11-17T13:45:43+01:00</time>
      </trkpt>
      <trkpt lat="43.68257" lon="3.08989">
        <ele>369</ele>
        <time>2023-11-17T13:46:03+01:00</time>
      </trkpt>
      <trkpt lat="43.68235" lon="3.08988">
        <ele>354</ele>
        <time>2023-11-17T13:47:41+01:00</time>
      </trkpt>
      <trkpt lat="43.68229" lon="3.09011">
        <ele>353</ele>
        <time>2023-11-17T13:48:00+01:00</time>
      </trkpt>
      <trkpt lat="43.68213" lon="3.09019">
        <ele>346</ele>
        <time>2023-11-17T13:48:21+01:00</time>
      </trkpt>
      <trkpt lat="43.682" lon="3.09038">
        <ele>345</ele>
        <time>2023-11-17T13:48:40+01:00</time>
      </trkpt>
      <trkpt lat="43.68187" lon="3.09057">
        <ele>343</ele>
        <time>2023-11-17T13:49:35+01:00</time>
      </trkpt>
      <trkpt lat="43.68171" lon="3.09069">
        <ele>338</ele>
        <time>2023-11-17T13:49:53+01:00</time>
      </trkpt>
      <trkpt lat="43.68158" lon="3.09088">
        <ele>334</ele>
        <time>2023-11-17T13:50:19+01:00</time>
      </trkpt>
      <trkpt lat="43.68146" lon="3.09104">
        <ele>331</ele>
        <time>2023-11-17T13:50:52+01:00</time>
      </trkpt>
      <trkpt lat="43.68146" lon="3.09117">
        <ele>330</ele>
        <time>2023-11-17T13:51:01+01:00</time>
      </trkpt>
      <trkpt lat="43.68146" lon="3.09143">
        <ele>330</ele>
        <time>2023-11-17T13:51:40+01:00</time>
      </trkpt>
      <trkpt lat="43.68143" lon="3.09169">
        <ele>332</ele>
        <time>2023-11-17T13:51:58+01:00</time>
      </trkpt>
      <trkpt lat="43.68131" lon="3.0919">
        <ele>334</ele>
        <time>2023-11-17T13:52:17+01:00</time>
      </trkpt>
      <trkpt lat="43.68124" lon="3.09213">
        <ele>337</ele>
        <time>2023-11-17T13:52:36+01:00</time>
      </trkpt>
      <trkpt lat="43.68108" lon="3.09227">
        <ele>336</ele>
        <time>2023-11-17T13:52:55+01:00</time>
      </trkpt>
      <trkpt lat="43.68104" lon="3.09252">
        <ele>340</ele>
        <time>2023-11-17T13:53:57+01:00</time>
      </trkpt>
      <trkpt lat="43.68094" lon="3.09274">
        <ele>342</ele>
        <time>2023-11-17T13:54:16+01:00</time>
      </trkpt>
      <trkpt lat="43.68085" lon="3.09296">
        <ele>344</ele>
        <time>2023-11-17T13:54:36+01:00</time>
      </trkpt>
      <trkpt lat="43.68071" lon="3.09312">
        <ele>343</ele>
        <time>2023-11-17T13:54:52+01:00</time>
      </trkpt>
      <trkpt lat="43.68057" lon="3.0933">
        <ele>342</ele>
        <time>2023-11-17T13:55:07+01:00</time>
      </trkpt>
      <trkpt lat="43.68048" lon="3.09349">
        <ele>344</ele>
        <time>2023-11-17T13:56:38+01:00</time>
      </trkpt>
      <trkpt lat="43.68035" lon="3.09368">
        <ele>344</ele>
        <time>2023-11-17T13:56:53+01:00</time>
      </trkpt>
      <trkpt lat="43.68021" lon="3.09385">
        <ele>344</ele>
        <time>2023-11-17T13:57:07+01:00</time>
      </trkpt>
      <trkpt lat="43.68007" lon="3.09401">
        <ele>344</ele>
        <time>2023-11-17T13:57:23+01:00</time>
      </trkpt>
      <trkpt lat="43.68" lon="3.09411">
        <ele>344</ele>
        <time>2023-11-17T13:57:31+01:00</time>
      </trkpt>
      <trkpt lat="43.67988" lon="3.09431">
        <ele>346</ele>
        <time>2023-11-17T13:57:46+01:00</time>
      </trkpt>
      <trkpt lat="43.67977" lon="3.09451">
        <ele>348</ele>
        <time>2023-11-17T13:58:01+01:00</time>
      </trkpt>
      <trkpt lat="43.67964" lon="3.09472">
        <ele>349</ele>
        <time>2023-11-17T13:58:21+01:00</time>
      </trkpt>
      <trkpt lat="43.67952" lon="3.09493">
        <ele>348</ele>
        <time>2023-11-17T13:58:40+01:00</time>
      </trkpt>
      <trkpt lat="43.6794" lon="3.09514">
        <ele>348</ele>
        <time>2023-11-17T13:59:02+01:00</time>
      </trkpt>
      <trkpt lat="43.67936" lon="3.09537">
        <ele>350</ele>
        <time>2023-11-17T13:59:19+01:00</time>
      </trkpt>
      <trkpt lat="43.67923" lon="3.09557">
        <ele>347</ele>
        <time>2023-11-17T13:59:38+01:00</time>
      </trkpt>
      <trkpt lat="43.67924" lon="3.09582">
        <ele>349</ele>
        <time>2023-11-17T14:00:20+01:00</time>
      </trkpt>
      <trkpt lat="43.67929" lon="3.0961">
        <ele>353</ele>
        <time>2023-11-17T14:00:41+01:00</time>
      </trkpt>
      <trkpt lat="43.6793" lon="3.09635">
        <ele>355</ele>
        <time>2023-11-17T14:00:54+01:00</time>
      </trkpt>
      <trkpt lat="43.67916" lon="3.09647">
        <ele>354</ele>
        <time>2023-11-17T14:01:23+01:00</time>
      </trkpt>
      <trkpt lat="43.67896" lon="3.09637">
        <ele>351</ele>
      </trkpt>
      <trkpt lat="43.67893" lon="3.09656">
        <ele>359</ele>
        <time>2023-11-17T14:03:32+01:00</time>
      </trkpt>
      <trkpt lat="43.67874" lon="3.09662">
        <ele>365</ele>
        <time>2023-11-17T14:03:54+01:00</time>
      </trkpt>
      <trkpt lat="43.67857" lon="3.09671">
        <ele>371</ele>
        <time>2023-11-17T14:04:23+01:00</time>
      </trkpt>
      <trkpt lat="43.67838" lon="3.0968">
        <ele>372</ele>
        <time>2023-11-17T14:04:51+01:00</time>
      </trkpt>
      <trkpt lat="43.67829" lon="3.09702">
        <ele>377</ele>
        <time>2023-11-17T14:05:10+01:00</time>
      </trkpt>
      <trkpt lat="43.67819" lon="3.09724">
        <ele>379</ele>
        <time>2023-11-17T14:05:31+01:00</time>
      </trkpt>
      <trkpt lat="43.67814" lon="3.09749">
        <ele>380</ele>
        <time>2023-11-17T14:05:51+01:00</time>
      </trkpt>
      <trkpt lat="43.67813" lon="3.09774">
        <ele>383</ele>
        <time>2023-11-17T14:06:19+01:00</time>
      </trkpt>
      <trkpt lat="43.67816" lon="3.09799">
        <ele>387</ele>
        <time>2023-11-17T14:07:17+01:00</time>
      </trkpt>
      <trkpt lat="43.67814" lon="3.09826">
        <ele>390</ele>
        <time>2023-11-17T14:07:36+01:00</time>
      </trkpt>
      <trkpt lat="43.67814" lon="3.09852">
        <ele>393</ele>
        <time>2023-11-17T14:07:57+01:00</time>
      </trkpt>
      <trkpt lat="43.67817" lon="3.09877">
        <ele>396</ele>
        <time>2023-11-17T14:08:22+01:00</time>
      </trkpt>
      <trkpt lat="43.67817" lon="3.09902">
        <ele>398</ele>
        <time>2023-11-17T14:08:42+01:00</time>
      </trkpt>
      <trkpt lat="43.6782" lon="3.09927">
        <ele>401</ele>
        <time>2023-11-17T14:09:04+01:00</time>
      </trkpt>
      <trkpt lat="43.67814" lon="3.09951">
        <ele>401</ele>
        <time>2023-11-17T14:10:12+01:00</time>
      </trkpt>
      <trkpt lat="43.67802" lon="3.09972">
        <ele>400</ele>
        <time>2023-11-17T14:10:33+01:00</time>
      </trkpt>
      <trkpt lat="43.67796" lon="3.09997">
        <ele>398</ele>
        <time>2023-11-17T14:10:53+01:00</time>
      </trkpt>
      <trkpt lat="43.67781" lon="3.10011">
        <ele>392</ele>
        <time>2023-11-17T14:11:17+01:00</time>
      </trkpt>
      <trkpt lat="43.67767" lon="3.10025">
        <ele>387</ele>
        <time>2023-11-17T14:11:38+01:00</time>
      </trkpt>
      <trkpt lat="43.67757" lon="3.10048">
        <ele>385</ele>
        <time>2023-11-17T14:11:57+01:00</time>
      </trkpt>
      <trkpt lat="43.67742" lon="3.10064">
        <ele>383</ele>
        <time>2023-11-17T14:12:16+01:00</time>
      </trkpt>
      <trkpt lat="43.67724" lon="3.1007">
        <ele>378</ele>
        <time>2023-11-17T14:12:43+01:00</time>
      </trkpt>
      <trkpt lat="43.67705" lon="3.10071">
        <ele>375</ele>
        <time>2023-11-17T14:13:02+01:00</time>
      </trkpt>
      <trkpt lat="43.67686" lon="3.1007">
        <ele>370</ele>
        <time>2023-11-17T14:13:20+01:00</time>
      </trkpt>
      <trkpt lat="43.67667" lon="3.10071">
        <ele>364</ele>
        <time>2023-11-17T14:13:41+01:00</time>
      </trkpt>
      <trkpt lat="43.67648" lon="3.10066">
        <ele>359</ele>
        <time>2023-11-17T14:14:03+01:00</time>
      </trkpt>
      <trkpt lat="43.67629" lon="3.1006">
        <ele>355</ele>
        <time>2023-11-17T14:14:23+01:00</time>
      </trkpt>
      <trkpt lat="43.67618" lon="3.10077">
        <ele>355</ele>
        <time>2023-11-17T14:14:39+01:00</time>
      </trkpt>
      <trkpt lat="43.67611" lon="3.10101">
        <ele>356</ele>
        <time>2023-11-17T14:14:54+01:00</time>
      </trkpt>
      <trkpt lat="43.67608" lon="3.10129">
        <ele>357</ele>
        <time>2023-11-17T14:15:13+01:00</time>
      </trkpt>
      <trkpt lat="43.67594" lon="3.10149">
        <ele>358</ele>
        <time>2023-11-17T14:15:29+01:00</time>
      </trkpt>
      <trkpt lat="43.67581" lon="3.10167">
        <ele>358</ele>
        <time>2023-11-17T14:15:44+01:00</time>
      </trkpt>
      <trkpt lat="43.67565" lon="3.10183">
        <ele>358</ele>
        <time>2023-11-17T14:15:59+01:00</time>
      </trkpt>
      <trkpt lat="43.67549" lon="3.102">
        <ele>358</ele>
        <time>2023-11-17T14:16:13+01:00</time>
      </trkpt>
      <trkpt lat="43.67531" lon="3.10215">
        <ele>356</ele>
        <time>2023-11-17T14:16:31+01:00</time>
      </trkpt>
      <trkpt lat="43.67512" lon="3.1022">
        <ele>354</ele>
        <time>2023-11-17T14:16:44+01:00</time>
      </trkpt>
      <trkpt lat="43.67497" lon="3.10233">
        <ele>353</ele>
        <time>2023-11-17T14:16:59+01:00</time>
      </trkpt>
      <trkpt lat="43.67483" lon="3.1025">
        <ele>352</ele>
        <time>2023-11-17T14:17:16+01:00</time>
      </trkpt>
      <trkpt lat="43.67468" lon="3.10267">
        <ele>354</ele>
        <time>2023-11-17T14:17:32+01:00</time>
      </trkpt>
      <trkpt lat="43.67451" lon="3.1028">
        <ele>356</ele>
        <time>2023-11-17T14:17:48+01:00</time>
      </trkpt>
      <trkpt lat="43.67434" lon="3.1029">
        <ele>359</ele>
        <time>2023-11-17T14:18:12+01:00</time>
      </trkpt>
      <trkpt lat="43.67415" lon="3.10294">
        <ele>361</ele>
        <time>2023-11-17T14:18:28+01:00</time>
      </trkpt>
      <trkpt lat="43.67396" lon="3.10294">
        <ele>360</ele>
        <time>2023-11-17T14:18:49+01:00</time>
      </trkpt>
      <trkpt lat="43.67381" lon="3.10309">
        <ele>362</ele>
        <time>2023-11-17T14:19:41+01:00</time>
      </trkpt>
      <trkpt lat="43.67374" lon="3.10332">
        <ele>364</ele>
        <time>2023-11-17T14:20:00+01:00</time>
      </trkpt>
      <trkpt lat="43.67369" lon="3.10357">
        <ele>368</ele>
        <time>2023-11-17T14:20:17+01:00</time>
      </trkpt>
      <trkpt lat="43.67361" lon="3.10383">
        <ele>369</ele>
        <time>2023-11-17T14:20:34+01:00</time>
      </trkpt>
      <trkpt lat="43.67347" lon="3.10403">
        <ele>368</ele>
        <time>2023-11-17T14:20:51+01:00</time>
      </trkpt>
      <trkpt lat="43.67337" lon="3.10426">
        <ele>369</ele>
        <time>2023-11-17T14:21:10+01:00</time>
      </trkpt>
      <trkpt lat="43.6732" lon="3.10437">
        <ele>368</ele>
        <time>2023-11-17T14:21:27+01:00</time>
      </trkpt>
      <trkpt lat="43.67307" lon="3.10457">
        <ele>370</ele>
        <time>2023-11-17T14:21:45+01:00</time>
      </trkpt>
      <trkpt lat="43.67296" lon="3.10477">
        <ele>374</ele>
        <time>2023-11-17T14:22:04+01:00</time>
      </trkpt>
      <trkpt lat="43.6728" lon="3.10491">
        <ele>376</ele>
        <time>2023-11-17T14:22:20+01:00</time>
      </trkpt>
      <trkpt lat="43.67263" lon="3.10502">
        <ele>377</ele>
        <time>2023-11-17T14:22:39+01:00</time>
      </trkpt>
      <trkpt lat="43.67245" lon="3.1051">
        <ele>376</ele>
        <time>2023-11-17T14:22:56+01:00</time>
      </trkpt>
      <trkpt lat="43.67228" lon="3.1052">
        <ele>378</ele>
        <time>2023-11-17T14:23:14+01:00</time>
      </trkpt>
      <trkpt lat="43.67211" lon="3.1053">
        <ele>379</ele>
        <time>2023-11-17T14:23:31+01:00</time>
      </trkpt>
      <trkpt lat="43.67193" lon="3.1054">
        <ele>379</ele>
        <time>2023-11-17T14:23:50+01:00</time>
      </trkpt>
      <trkpt lat="43.67178" lon="3.10554">
        <ele>381</ele>
        <time>2023-11-17T14:24:07+01:00</time>
      </trkpt>
      <trkpt lat="43.67164" lon="3.10573">
        <ele>383</ele>
        <time>2023-11-17T14:24:27+01:00</time>
      </trkpt>
      <trkpt lat="43.67154" lon="3.10595">
        <ele>386</ele>
        <time>2023-11-17T14:24:49+01:00</time>
      </trkpt>
      <trkpt lat="43.67147" lon="3.10617">
        <ele>389</ele>
        <time>2023-11-17T14:25:18+01:00</time>
      </trkpt>
      <trkpt lat="43.67133" lon="3.10636">
        <ele>390</ele>
        <time>2023-11-17T14:25:33+01:00</time>
      </trkpt>
      <trkpt lat="43.67122" lon="3.10656">
        <ele>392</ele>
        <time>2023-11-17T14:25:51+01:00</time>
      </trkpt>
      <trkpt lat="43.67113" lon="3.10678">
        <ele>394</ele>
        <time>2023-11-17T14:26:10+01:00</time>
      </trkpt>
      <trkpt lat="43.67103" lon="3.10702">
        <ele>395</ele>
        <time>2023-11-17T14:26:30+01:00</time>
      </trkpt>
      <trkpt lat="43.67094" lon="3.10726">
        <ele>398</ele>
        <time>2023-11-17T14:26:51+01:00</time>
      </trkpt>
      <trkpt lat="43.67085" lon="3.1075">
        <ele>399</ele>
        <time>2023-11-17T14:27:07+01:00</time>
      </trkpt>
      <trkpt lat="43.67073" lon="3.10771">
        <ele>400</ele>
        <time>2023-11-17T14:27:24+01:00</time>
      </trkpt>
      <trkpt lat="43.67062" lon="3.10791">
        <ele>400</ele>
        <time>2023-11-17T14:27:42+01:00</time>
      </trkpt>
      <trkpt lat="43.67052" lon="3.10815">
        <ele>400</ele>
        <time>2023-11-17T14:28:00+01:00</time>
      </trkpt>
      <trkpt lat="43.67039" lon="3.10835">
        <ele>399</ele>
        <time>2023-11-17T14:28:17+01:00</time>
      </trkpt>
      <trkpt lat="43.67026" lon="3.10854">
        <ele>397</ele>
        <time>2023-11-17T14:28:33+01:00</time>
      </trkpt>
      <trkpt lat="43.67017" lon="3.10877">
        <ele>397</ele>
        <time>2023-11-17T14:28:50+01:00</time>
      </trkpt>
      <trkpt lat="43.67013" lon="3.10894">
        <ele>398</ele>
        <time>2023-11-17T14:37:52+01:00</time>
      </trkpt>
      <trkpt lat="43.67012" lon="3.1092">
        <ele>401</ele>
        <time>2023-11-17T14:38:19+01:00</time>
      </trkpt>
      <trkpt lat="43.67015" lon="3.10934">
        <ele>402</ele>
        <time>2023-11-17T14:38:35+01:00</time>
      </trkpt>
      <trkpt lat="43.67024" lon="3.10957">
        <ele>405</ele>
        <time>2023-11-17T14:38:57+01:00</time>
      </trkpt>
      <trkpt lat="43.67029" lon="3.10983">
        <ele>408</ele>
        <time>2023-11-17T14:39:18+01:00</time>
      </trkpt>
      <trkpt lat="43.6703" lon="3.11008">
        <ele>410</ele>
        <time>2023-11-17T14:39:39+01:00</time>
      </trkpt>
      <trkpt lat="43.6703" lon="3.11035">
        <ele>412</ele>
        <time>2023-11-17T14:39:58+01:00</time>
      </trkpt>
      <trkpt lat="43.67025" lon="3.11059">
        <ele>413</ele>
        <time>2023-11-17T14:40:16+01:00</time>
      </trkpt>
      <trkpt lat="43.6702" lon="3.11086">
        <ele>414</ele>
        <time>2023-11-17T14:40:39+01:00</time>
      </trkpt>
      <trkpt lat="43.67019" lon="3.11112">
        <ele>419</ele>
        <time>2023-11-17T14:41:02+01:00</time>
      </trkpt>
      <trkpt lat="43.67014" lon="3.11137">
        <ele>423</ele>
        <time>2023-11-17T14:41:24+01:00</time>
      </trkpt>
      <trkpt lat="43.67006" lon="3.11161">
        <ele>425</ele>
        <time>2023-11-17T14:41:50+01:00</time>
      </trkpt>
      <trkpt lat="43.67" lon="3.11185">
        <ele>430</ele>
        <time>2023-11-17T14:42:14+01:00</time>
      </trkpt>
      <trkpt lat="43.66994" lon="3.11208">
        <ele>434</ele>
        <time>2023-11-17T14:42:39+01:00</time>
      </trkpt>
      <trkpt lat="43.66981" lon="3.11227">
        <ele>436</ele>
        <time>2023-11-17T14:43:19+01:00</time>
      </trkpt>
      <trkpt lat="43.66989" lon="3.1125">
        <ele>441</ele>
        <time>2023-11-17T14:44:34+01:00</time>
      </trkpt>
      <trkpt lat="43.66977" lon="3.11256">
        <ele>443</ele>
      </trkpt>
      <trkpt lat="43.66964" lon="3.11258">
        <ele>443</ele>
      </trkpt>
      <trkpt lat="43.66952" lon="3.11265">
        <ele>444</ele>
      </trkpt>
      <trkpt lat="43.66946" lon="3.11277">
        <ele>448</ele>
      </trkpt>
      <trkpt lat="43.66933" lon="3.11295">
        <ele>451</ele>
      </trkpt>
      <trkpt lat="43.66923" lon="3.11317">
        <ele>456</ele>
      </trkpt>
      <trkpt lat="43.66909" lon="3.1134">
        <ele>459</ele>
      </trkpt>
      <trkpt lat="43.66895" lon="3.11363">
        <ele>463</ele>
      </trkpt>
      <trkpt lat="43.66901" lon="3.11383">
        <ele>467</ele>
      </trkpt>
      <trkpt lat="43.66907" lon="3.11379">
        <ele>467</ele>
      </trkpt>
      <trkpt lat="43.66926" lon="3.11346">
        <ele>461</ele>
      </trkpt>
      <trkpt lat="43.66941" lon="3.11326">
        <ele>459</ele>
      </trkpt>
      <trkpt lat="43.66952" lon="3.11304">
        <ele>454</ele>
        <time>2023-11-17T14:46:00+01:00</time>
      </trkpt>
      <trkpt lat="43.66961" lon="3.11282">
        <ele>449</ele>
      </trkpt>
      <trkpt lat="43.66969" lon="3.11263">
        <ele>445</ele>
      </trkpt>
      <trkpt lat="43.66991" lon="3.1126">
        <ele>442</ele>
      </trkpt>
      <trkpt lat="43.67004" lon="3.11282">
        <ele>441</ele>
        <time>2023-11-17T14:46:13+01:00</time>
      </trkpt>
      <trkpt lat="43.67016" lon="3.11305">
        <ele>439</ele>
      </trkpt>
      <trkpt lat="43.67033" lon="3.11323">
        <ele>435</ele>
      </trkpt>
      <trkpt lat="43.67044" lon="3.11342">
        <ele>429</ele>
      </trkpt>
      <trkpt lat="43.67046" lon="3.11368">
        <ele>427</ele>
      </trkpt>
      <trkpt lat="43.67059" lon="3.11387">
        <ele>420</ele>
        <time>2023-11-17T14:52:50+01:00</time>
      </trkpt>
      <trkpt lat="43.67074" lon="3.11403">
        <ele>414</ele>
        <time>2023-11-17T14:53:50+01:00</time>
      </trkpt>
      <trkpt lat="43.67076" lon="3.11422">
        <ele>412</ele>
        <time>2023-11-17T14:54:19+01:00</time>
      </trkpt>
      <trkpt lat="43.67088" lon="3.11442">
        <ele>407</ele>
        <time>2023-11-17T14:54:44+01:00</time>
      </trkpt>
      <trkpt lat="43.67099" lon="3.11461">
        <ele>402</ele>
        <time>2023-11-17T14:55:02+01:00</time>
      </trkpt>
      <trkpt lat="43.671" lon="3.11486">
        <ele>399</ele>
        <time>2023-11-17T14:55:41+01:00</time>
      </trkpt>
      <trkpt lat="43.67095" lon="3.11512">
        <ele>397</ele>
        <time>2023-11-17T14:56:01+01:00</time>
      </trkpt>
      <trkpt lat="43.671" lon="3.11538">
        <ele>391</ele>
        <time>2023-11-17T14:56:22+01:00</time>
      </trkpt>
      <trkpt lat="43.67102" lon="3.11565">
        <ele>386</ele>
        <time>2023-11-17T14:56:43+01:00</time>
      </trkpt>
      <trkpt lat="43.67102" lon="3.11591">
        <ele>381</ele>
        <time>2023-11-17T14:57:05+01:00</time>
      </trkpt>
      <trkpt lat="43.6711" lon="3.11598">
        <ele>378</ele>
        <time>2023-11-17T14:57:24+01:00</time>
      </trkpt>
      <trkpt lat="43.6712" lon="3.11618">
        <ele>373</ele>
        <time>2023-11-17T14:57:44+01:00</time>
      </trkpt>
      <trkpt lat="43.67124" lon="3.11629">
        <ele>370</ele>
        <time>2023-11-17T14:58:02+01:00</time>
      </trkpt>
      <trkpt lat="43.67132" lon="3.11605">
        <ele>371</ele>
        <time>2023-11-17T14:58:40+01:00</time>
      </trkpt>
      <trkpt lat="43.67147" lon="3.11589">
        <ele>368</ele>
        <time>2023-11-17T14:59:01+01:00</time>
      </trkpt>
      <trkpt lat="43.67164" lon="3.1158">
        <ele>365</ele>
        <time>2023-11-17T14:59:21+01:00</time>
      </trkpt>
      <trkpt lat="43.67179" lon="3.11565">
        <ele>363</ele>
        <time>2023-11-17T14:59:36+01:00</time>
      </trkpt>
      <trkpt lat="43.67196" lon="3.11551">
        <ele>361</ele>
        <time>2023-11-17T14:59:53+01:00</time>
      </trkpt>
      <trkpt lat="43.67212" lon="3.11563">
        <ele>358</ele>
        <time>2023-11-17T15:00:32+01:00</time>
      </trkpt>
      <trkpt lat="43.67208" lon="3.11588">
        <ele>355</ele>
        <time>2023-11-17T15:00:50+01:00</time>
      </trkpt>
      <trkpt lat="43.67206" lon="3.11614">
        <ele>353</ele>
        <time>2023-11-17T15:01:15+01:00</time>
      </trkpt>
      <trkpt lat="43.672" lon="3.11639">
        <ele>351</ele>
        <time>2023-11-17T15:01:32+01:00</time>
      </trkpt>
      <trkpt lat="43.67185" lon="3.11657">
        <ele>350</ele>
        <time>2023-11-17T15:01:50+01:00</time>
      </trkpt>
      <trkpt lat="43.67196" lon="3.11684">
        <ele>346</ele>
        <time>2023-11-17T15:02:29+01:00</time>
      </trkpt>
      <trkpt lat="43.67204" lon="3.11708">
        <ele>343</ele>
        <time>2023-11-17T15:03:17+01:00</time>
      </trkpt>
      <trkpt lat="43.67194" lon="3.11728">
        <ele>342</ele>
        <time>2023-11-17T15:04:02+01:00</time>
      </trkpt>
      <trkpt lat="43.67192" lon="3.11753">
        <ele>340</ele>
        <time>2023-11-17T15:04:22+01:00</time>
      </trkpt>
      <trkpt lat="43.672" lon="3.11776">
        <ele>336</ele>
        <time>2023-11-17T15:04:38+01:00</time>
      </trkpt>
      <trkpt lat="43.6721" lon="3.11796">
        <ele>332</ele>
        <time>2023-11-17T15:04:55+01:00</time>
      </trkpt>
      <trkpt lat="43.67229" lon="3.11808">
        <ele>330</ele>
        <time>2023-11-17T15:05:16+01:00</time>
      </trkpt>
      <trkpt lat="43.6724" lon="3.11834">
        <ele>328</ele>
        <time>2023-11-17T15:05:44+01:00</time>
      </trkpt>
      <trkpt lat="43.6724" lon="3.11847">
        <ele>327</ele>
        <time>2023-11-17T15:05:59+01:00</time>
      </trkpt>
      <trkpt lat="43.67258" lon="3.11839">
        <ele>327</ele>
        <time>2023-11-17T15:06:22+01:00</time>
      </trkpt>
      <trkpt lat="43.67276" lon="3.11833">
        <ele>327</ele>
        <time>2023-11-17T15:06:37+01:00</time>
      </trkpt>
      <trkpt lat="43.67293" lon="3.11819">
        <ele>326</ele>
        <time>2023-11-17T15:06:56+01:00</time>
      </trkpt>
      <trkpt lat="43.67312" lon="3.11818">
        <ele>325</ele>
        <time>2023-11-17T15:07:17+01:00</time>
      </trkpt>
      <trkpt lat="43.67331" lon="3.11817">
        <ele>321</ele>
        <time>2023-11-17T15:07:35+01:00</time>
      </trkpt>
      <trkpt lat="43.67349" lon="3.11814">
        <ele>319</ele>
        <time>2023-11-17T15:07:51+01:00</time>
      </trkpt>
      <trkpt lat="43.67368" lon="3.11814">
        <ele>316</ele>
        <time>2023-11-17T15:08:04+01:00</time>
      </trkpt>
      <trkpt lat="43.67386" lon="3.11822">
        <ele>314</ele>
        <time>2023-11-17T15:08:20+01:00</time>
      </trkpt>
      <trkpt lat="43.67405" lon="3.11832">
        <ele>314</ele>
        <time>2023-11-17T15:08:37+01:00</time>
      </trkpt>
      <trkpt lat="43.67424" lon="3.11829">
        <ele>314</ele>
        <time>2023-11-17T15:08:53+01:00</time>
      </trkpt>
      <trkpt lat="43.67443" lon="3.11827">
        <ele>312</ele>
        <time>2023-11-17T15:09:08+01:00</time>
      </trkpt>
      <trkpt lat="43.67462" lon="3.11823">
        <ele>311</ele>
        <time>2023-11-17T15:09:24+01:00</time>
      </trkpt>
      <trkpt lat="43.67479" lon="3.11808">
        <ele>311</ele>
        <time>2023-11-17T15:09:41+01:00</time>
      </trkpt>
      <trkpt lat="43.6749" lon="3.11789">
        <ele>312</ele>
        <time>2023-11-17T15:09:57+01:00</time>
      </trkpt>
      <trkpt lat="43.67506" lon="3.11773">
        <ele>311</ele>
        <time>2023-11-17T15:10:14+01:00</time>
      </trkpt>
      <trkpt lat="43.67524" lon="3.11782">
        <ele>310</ele>
        <time>2023-11-17T15:10:32+01:00</time>
      </trkpt>
      <trkpt lat="43.67542" lon="3.11795">
        <ele>310</ele>
        <time>2023-11-17T15:10:54+01:00</time>
      </trkpt>
      <trkpt lat="43.67558" lon="3.1181">
        <ele>310</ele>
        <time>2023-11-17T15:11:17+01:00</time>
      </trkpt>
      <trkpt lat="43.67574" lon="3.11824">
        <ele>312</ele>
        <time>2023-11-17T15:11:34+01:00</time>
      </trkpt>
      <trkpt lat="43.67591" lon="3.11827">
        <ele>313</ele>
        <time>2023-11-17T15:11:55+01:00</time>
      </trkpt>
      <trkpt lat="43.67607" lon="3.11812">
        <ele>315</ele>
        <time>2023-11-17T15:12:13+01:00</time>
      </trkpt>
      <trkpt lat="43.67621" lon="3.11794">
        <ele>315</ele>
        <time>2023-11-17T15:12:31+01:00</time>
      </trkpt>
      <trkpt lat="43.67635" lon="3.11776">
        <ele>315</ele>
        <time>2023-11-17T15:12:47+01:00</time>
      </trkpt>
      <trkpt lat="43.67651" lon="3.11761">
        <ele>318</ele>
        <time>2023-11-17T15:13:03+01:00</time>
      </trkpt>
      <trkpt lat="43.67663" lon="3.11741">
        <ele>318</ele>
        <time>2023-11-17T15:13:17+01:00</time>
      </trkpt>
      <trkpt lat="43.67676" lon="3.11722">
        <ele>320</ele>
        <time>2023-11-17T15:13:36+01:00</time>
      </trkpt>
      <trkpt lat="43.67689" lon="3.11703">
        <ele>320</ele>
        <time>2023-11-17T15:13:55+01:00</time>
      </trkpt>
      <trkpt lat="43.67703" lon="3.11684">
        <ele>322</ele>
        <time>2023-11-17T15:14:13+01:00</time>
      </trkpt>
      <trkpt lat="43.67716" lon="3.11665">
        <ele>321</ele>
        <time>2023-11-17T15:14:29+01:00</time>
      </trkpt>
      <trkpt lat="43.67731" lon="3.11645">
        <ele>322</ele>
        <time>2023-11-17T15:14:48+01:00</time>
      </trkpt>
      <trkpt lat="43.67742" lon="3.11625">
        <ele>320</ele>
        <time>2023-11-17T15:15:03+01:00</time>
      </trkpt>
      <trkpt lat="43.67752" lon="3.11602">
        <ele>319</ele>
        <time>2023-11-17T15:15:16+01:00</time>
      </trkpt>
      <trkpt lat="43.67765" lon="3.11581">
        <ele>318</ele>
        <time>2023-11-17T15:15:33+01:00</time>
      </trkpt>
      <trkpt lat="43.67777" lon="3.11562">
        <ele>318</ele>
        <time>2023-11-17T15:15:49+01:00</time>
      </trkpt>
      <trkpt lat="43.67794" lon="3.11551">
        <ele>319</ele>
        <time>2023-11-17T15:16:03+01:00</time>
      </trkpt>
      <trkpt lat="43.67809" lon="3.11535">
        <ele>319</ele>
        <time>2023-11-17T15:16:19+01:00</time>
      </trkpt>
      <trkpt lat="43.67825" lon="3.11519">
        <ele>319</ele>
        <time>2023-11-17T15:16:34+01:00</time>
      </trkpt>
      <trkpt lat="43.6784" lon="3.11501">
        <ele>319</ele>
        <time>2023-11-17T15:16:43+01:00</time>
      </trkpt>
    </trkseg>
  </trk>
</gpx>